AA993 / N820AW 7700 Squawk Report (17th of August, 2022)

Aircraft A319 Reg No. N820AW Age 21 years old
Model A319 Jet engines 2 First flight 01-12-00
Registered 08-04-15 Rollout 11-00 Delivered 21-12-00
Construction No. 1397 Line No. N/A Series 132
ADSHEX AB30F0 Airline name American Airlines Owner State Street Bank & Trust Co
Airfield based Phoenix-Sky Harbor~AZ~N First tracked N/A

Flight history for N820AW

Route Flight No Date Playback
Charlotte Douglas (CLT) - Ronald Reagan Washington Natl (DCA) AA1775 2022-10-07 19:59:00
Charlotte Douglas (CLT) - Toronto Pearson International (YYZ) - Charlotte Douglas (CLT) AA1720 2022-10-07 17:40:00
Daytona Beach Intl (DAB) - Charlotte Douglas (CLT) AA560 2022-10-07 11:27:00
Charlotte Douglas (CLT) - Daytona Beach Intl (DAB) AA654 2022-10-07 02:00:00
Philadelphia Intl (PHL) - Charlotte Douglas (CLT) AA415 2022-10-06 23:10:00
Philadelphia Intl (PHL) - Halifax Stanfield (YHZ) - Philadelphia Intl (PHL) AA2076 2022-10-06 20:23:00
Phoenix Sky Harbor Intl (PHX) - Philadelphia Intl (PHL) AA9784 2022-10-06 00:27:00
El Paso Intl (ELP) - Phoenix Sky Harbor Intl (PHX) AA2119 2022-10-05 19:00:00
Phoenix Sky Harbor Intl (PHX) - El Paso Intl (ELP) AA2124 2022-10-05 16:37:00
Phoenix Sky Harbor Intl (PHX) - El Paso Intl (ELP) - Phoenix Sky Harbor Intl (PHX) AA1560 2022-10-04 22:52:00
Los Angeles Intl (LAX) - Phoenix Sky Harbor Intl (PHX) AA413 2022-10-04 19:26:00
San Antonio Intl (SAT) - Los Angeles Intl (LAX) AA2984 2022-10-04 16:34:00
Los Angeles Intl (LAX) - San Antonio Intl (SAT) AA871 2022-10-04 11:14:00
Los Angeles Intl (LAX) - Vancouver International (YVR) - Los Angeles Intl (LAX) AA1719 2022-10-03 23:56:00
???? N/A 2022-10-03 16:51:00
???? N/A 2022-10-03 16:29:00
Orlando Intl (MCO) - Austin Bergstrom Intl (AUS) AA433 2022-10-02 15:52:00
Austin Bergstrom Intl (AUS) - Orlando Intl (MCO) AA1237 2022-10-02 00:42:00
Dallas Fort Worth (DFW) - Austin Bergstrom Intl (AUS) AA2128 2022-10-01 22:34:00
Syracuse Hancock Intl (SYR) - Dallas Fort Worth (DFW) AA1114 2022-10-01 20:38:00
Time Lat Lon Altitude Heading Speed Vertical Rate
2022-08-17 15:53:23 GMT 35.216160 -80.947250 0 89 13 96
2022-08-17 15:53:22 GMT 35.216160 -80.947319 0 89 13 0
2022-08-17 15:53:21 GMT 35.216160 -80.947479 0 89 13 0
2022-08-17 15:53:19 GMT 35.216148 -80.947548 0 89 14 0
2022-08-17 15:53:17 GMT 35.216141 -80.947701 0 94 14 0
2022-08-17 15:53:16 GMT 35.216141 -80.947769 0 94 15 0
2022-08-17 15:53:14 GMT 35.216171 -80.947968 0 90 13 0
2022-08-17 15:53:13 GMT 35.216160 -80.948097 0 90 14 0
2022-08-17 15:53:11 GMT 35.216179 -80.948181 0 80 14 0
2022-08-17 15:53:10 GMT 35.216179 -80.948242 0 77 14 0
2022-08-17 15:53:09 GMT 35.216160 -80.948418 0 81 13 0
2022-08-17 15:53:07 GMT 35.216122 -80.948570 0 84 14 0
2022-08-17 15:53:05 GMT 35.216122 -80.948738 0 80 11 0
2022-08-17 15:53:03 GMT 35.216091 -80.948792 0 90 13 0
2022-08-17 15:53:02 GMT 35.216099 -80.948921 0 80 15 0
2022-08-17 15:53:00 GMT 35.216091 -80.948990 0 85 16 0
2022-08-17 15:52:58 GMT 35.216068 -80.949173 0 87 17 0
2022-08-17 15:52:57 GMT 35.216068 -80.949257 0 88 17 0
2022-08-17 15:52:55 GMT 35.216061 -80.949493 0 82 11 0
2022-08-17 15:52:54 GMT 35.216030 -80.949600 0 87 12 0
2022-08-17 15:52:52 GMT 35.216030 -80.949661 0 85 12 0
2022-08-17 15:52:51 GMT 35.216042 -80.949730 0 80 13 0
2022-08-17 15:52:49 GMT 35.216019 -80.949890 0 82 9 0
2022-08-17 15:52:48 GMT 35.216011 -80.949921 0 92 11 0
2022-08-17 15:52:46 GMT 35.215981 -80.950073 0 102 10 0
2022-08-17 15:52:45 GMT 35.216011 -80.950180 0 79 9 0
2022-08-17 15:52:43 GMT 35.216030 -80.950241 0 68 8 0
2022-08-17 15:52:41 GMT 35.216011 -80.950317 0 65 10 0
2022-08-17 15:52:39 GMT 35.215981 -80.950432 0 62 10 0
2022-08-17 15:52:38 GMT 35.215939 -80.950493 0 61 8 0
2022-08-17 15:52:36 GMT 35.215919 -80.950569 0 60 8 0
2022-08-17 15:52:35 GMT 35.215912 -80.950600 0 57 8 0
2022-08-17 15:52:34 GMT 35.215900 -80.950630 0 52 10 0
2022-08-17 15:52:32 GMT 35.215870 -80.950729 0 40 12 0
2022-08-17 15:52:30 GMT 35.215778 -80.950813 0 41 11 0
2022-08-17 15:52:29 GMT 35.215691 -80.950912 0 38 9 0
2022-08-17 15:52:27 GMT 35.215649 -80.950951 0 35 7 0
2022-08-17 15:52:25 GMT 35.215630 -80.951019 0 23 11 0
2022-08-17 15:52:24 GMT 35.215542 -80.951057 0 26 13 0
2022-08-17 15:52:22 GMT 35.215488 -80.951088 0 25 14 0
2022-08-17 15:52:20 GMT 35.215302 -80.951202 0 23 12 0
2022-08-17 15:52:18 GMT 35.215248 -80.951233 0 23 12 0
2022-08-17 15:52:16 GMT 35.215141 -80.951279 0 26 12 0
2022-08-17 15:52:15 GMT 35.215092 -80.951317 0 24 11 0
2022-08-17 15:52:13 GMT 35.215012 -80.951370 0 22 14 0
2022-08-17 15:52:12 GMT 35.214890 -80.951424 0 27 15 0
2022-08-17 15:52:10 GMT 35.214828 -80.951469 0 22 15 0
2022-08-17 15:52:08 GMT 35.214691 -80.951538 0 19 15 0
2022-08-17 15:52:07 GMT 35.214619 -80.951591 0 12 13 0
2022-08-17 15:52:05 GMT 35.214489 -80.951607 0 22 13 0
2022-08-17 15:52:04 GMT 35.214420 -80.951637 0 21 11 0
2022-08-17 15:52:02 GMT 35.214340 -80.951683 0 19 12 0
2022-08-17 15:52:01 GMT 35.214291 -80.951698 0 16 14 0
2022-08-17 15:51:59 GMT 35.214169 -80.951759 0 5 13 0
2022-08-17 15:51:58 GMT 35.214111 -80.951767 0 5 11 0
2022-08-17 15:51:56 GMT 35.214008 -80.951767 0 13 12 -32
2022-08-17 15:51:55 GMT 35.213879 -80.951797 0 23 10 -32
2022-08-17 15:51:53 GMT 35.213840 -80.951797 0 25 11 -32
2022-08-17 15:51:51 GMT 35.213760 -80.951897 0 0 10 -32
2022-08-17 15:51:49 GMT 35.213669 -80.951897 0 7 9 -32
2022-08-17 15:51:48 GMT 35.213581 -80.951889 0 9 10 -32
2022-08-17 15:51:46 GMT 35.213520 -80.951920 0 3 7 -32
2022-08-17 15:51:45 GMT 35.213440 -80.951950 0 354 7 -32
2022-08-17 15:51:43 GMT 35.213409 -80.951950 0 354 6 -32
2022-08-17 15:51:41 GMT 35.213348 -80.951927 0 4 6 -32
2022-08-17 15:51:39 GMT 35.213291 -80.951942 0 62 7 -32
2022-08-17 15:51:37 GMT 35.213219 -80.951920 0 145 3 -32
2022-08-17 15:51:36 GMT 35.213211 -80.951920 0 147 3 -32
2022-08-17 15:51:34 GMT 35.213169 -80.951897 0 153 2 -32
2022-08-17 15:51:32 GMT 35.213150 -80.951897 0 158 2 -32
2022-08-17 15:51:30 GMT 35.213120 -80.951912 0 163 1 -32
2022-08-17 15:51:28 GMT 35.213100 -80.951920 0 163 0 -32
2022-08-17 15:51:26 GMT 35.213089 -80.951920 0 159 1 0
2022-08-17 15:51:24 GMT 35.213089 -80.951897 0 158 1 0
2022-08-17 15:51:22 GMT 35.213100 -80.951912 0 158 1 0
2022-08-17 15:51:20 GMT 35.213112 -80.951897 0 158 1 0
2022-08-17 15:51:19 GMT 35.213120 -80.951920 0 159 1 0
2022-08-17 15:51:17 GMT 35.213131 -80.951927 0 159 0 0
2022-08-17 15:51:15 GMT 35.213120 -80.951920 0 159 0 0
2022-08-17 15:51:14 GMT 35.213131 -80.951912 0 159 1 0
2022-08-17 15:51:12 GMT 35.213120 -80.951950 0 157 2 0
2022-08-17 15:51:11 GMT 35.213131 -80.951920 0 157 0 -32
2022-08-17 15:51:10 GMT 35.213120 -80.951897 0 157 2 -32
2022-08-17 15:51:07 GMT 35.213120 -80.951927 0 157 0 -32
2022-08-17 15:51:06 GMT 35.213131 -80.951920 0 157 0 -32
2022-08-17 15:51:04 GMT 35.213131 -80.951912 0 157 1 -32
2022-08-17 15:51:02 GMT 35.213139 -80.951950 0 156 2 -32
2022-08-17 15:51:01 GMT 35.213120 -80.951920 0 146 1 0
2022-08-17 15:50:58 GMT 35.213120 -80.951897 0 145 1 -32
2022-08-17 15:50:57 GMT 35.213112 -80.951889 0 144 0 -32
2022-08-17 15:50:55 GMT 35.213131 -80.951889 0 144 1 -32
2022-08-17 15:50:53 GMT 35.213112 -80.951942 0 144 1 -32
2022-08-17 15:50:49 GMT 35.213120 -80.951912 0 140 1 0
2022-08-17 15:50:48 GMT 35.213139 -80.951889 0 142 2 0
2022-08-17 15:50:44 GMT 35.213131 -80.951927 0 144 0 -32
2022-08-17 15:50:42 GMT 35.213139 -80.951942 0 144 0 -32
2022-08-17 15:50:40 GMT 35.213120 -80.951912 0 144 0 -32
2022-08-17 15:50:37 GMT 35.213120 -80.951912 0 144 0 -32
2022-08-17 15:50:32 GMT 35.213131 -80.951920 0 144 0 -32
2022-08-17 15:50:31 GMT 35.213120 -80.951920 0 144 0 -32
2022-08-17 15:50:30 GMT 35.213131 -80.951920 0 144 0 -32
2022-08-17 15:50:25 GMT 35.213120 -80.951920 0 145 0 32
2022-08-17 15:50:22 GMT 35.213120 -80.951942 0 145 0 32
2022-08-17 15:50:20 GMT 35.213120 -80.951927 0 145 0 0
2022-08-17 15:50:17 GMT 35.213112 -80.951942 0 145 1 0
2022-08-17 15:50:15 GMT 35.213112 -80.951912 0 147 2 -32
2022-08-17 15:50:11 GMT 35.213120 -80.951942 0 147 1 -32
2022-08-17 15:50:09 GMT 35.213120 -80.951958 0 145 0 -32
2022-08-17 15:50:08 GMT 35.213120 -80.951958 0 137 1 -32
2022-08-17 15:50:06 GMT 35.213100 -80.951958 0 133 2 0
2022-08-17 15:50:04 GMT 35.213112 -80.951927 0 133 1 0
2022-08-17 15:50:02 GMT 35.213120 -80.951920 0 133 0 0
2022-08-17 15:50:01 GMT 35.213120 -80.951912 0 133 0 0
2022-08-17 15:49:59 GMT 35.213112 -80.951920 0 133 1 0
2022-08-17 15:49:58 GMT 35.213131 -80.951920 0 133 1 0
2022-08-17 15:49:56 GMT 35.213120 -80.951927 0 128 0 0
2022-08-17 15:49:53 GMT 35.213112 -80.951927 0 128 0 0
2022-08-17 15:49:51 GMT 35.213120 -80.951927 0 128 0 0
2022-08-17 15:49:49 GMT 35.213120 -80.951912 0 128 0 0
2022-08-17 15:49:48 GMT 35.213120 -80.951920 0 128 0 -96
2022-08-17 15:49:46 GMT 35.213120 -80.951942 0 128 0 -96
2022-08-17 15:49:44 GMT 35.213120 -80.951942 0 128 0 -96
2022-08-17 15:49:43 GMT 35.213120 -80.951927 0 128 0 -96
2022-08-17 15:49:41 GMT 35.213112 -80.951927 0 129 0 -96
2022-08-17 15:49:39 GMT 35.213112 -80.951927 0 129 0 -96
2022-08-17 15:49:38 GMT 35.213112 -80.951912 0 125 0 -96
2022-08-17 15:49:35 GMT 35.213112 -80.951912 0 125 0 -96
2022-08-17 15:49:34 GMT 35.213139 -80.951942 0 127 2 -96
2022-08-17 15:49:32 GMT 35.213112 -80.951927 0 127 1 -96
2022-08-17 15:49:30 GMT 35.213100 -80.951912 0 129 1 -96
2022-08-17 15:49:29 GMT 35.213089 -80.951920 0 128 1 64
2022-08-17 15:49:26 GMT 35.213089 -80.951920 0 119 4 64
2022-08-17 15:49:25 GMT 35.213100 -80.951912 0 47 4 64
2022-08-17 15:49:24 GMT 35.213089 -80.951912 0 9 4 64
2022-08-17 15:49:23 GMT 35.213131 -80.951912 0 9 0 64
2022-08-17 15:49:22 GMT 35.213139 -80.951912 0 12 5 64
2022-08-17 15:49:20 GMT 35.213100 -80.951889 0 17 2 64
2022-08-17 15:49:19 GMT 35.213039 -80.951897 0 10 5 128
2022-08-17 15:49:17 GMT 35.213020 -80.951912 0 0 8 128
2022-08-17 15:49:16 GMT 35.212952 -80.951920 0 358 19 128
2022-08-17 15:49:14 GMT 35.212849 -80.951912 0 358 22 128
2022-08-17 15:49:12 GMT 35.212662 -80.951942 0 350 33 128
2022-08-17 15:49:11 GMT 35.212349 -80.951889 0 352 41 -128
2022-08-17 15:49:09 GMT 35.212132 -80.951828 0 356 40 -128
2022-08-17 15:49:07 GMT 35.211712 -80.951767 0 358 46 -128
2022-08-17 15:49:06 GMT 35.211498 -80.951782 0 356 52 -128
2022-08-17 15:49:04 GMT 35.211040 -80.951782 0 354 70 992
2022-08-17 15:49:03 GMT 35.210751 -80.951736 0 354 77 992
2022-08-17 15:49:02 GMT 35.210049 -80.951637 575 357 91 992
2022-08-17 15:49:00 GMT 35.209660 -80.951622 575 356 97 992
2022-08-17 15:48:58 GMT 35.208809 -80.951576 575 355 110 0
2022-08-17 15:48:56 GMT 35.207809 -80.951477 575 356 117 0
2022-08-17 15:48:55 GMT 35.206772 -80.951401 575 356 123 160
2022-08-17 15:48:53 GMT 35.205662 -80.951317 575 355 127 32
2022-08-17 15:48:51 GMT 35.205090 -80.951263 575 355 130 -256
2022-08-17 15:48:49 GMT 35.203911 -80.951149 575 356 131 352
2022-08-17 15:48:48 GMT 35.202679 -80.951073 650 355 129 352
2022-08-17 15:48:46 GMT 35.201481 -80.950928 650 356 131 0
2022-08-17 15:48:44 GMT 35.200249 -80.950859 650 354 129 -736
2022-08-17 15:48:42 GMT 35.199039 -80.950752 725 353 130 192
2022-08-17 15:48:40 GMT 35.198448 -80.950638 725 356 130 192
2022-08-17 15:48:38 GMT 35.197231 -80.950562 725 356 133 -32
2022-08-17 15:48:37 GMT 35.195999 -80.950470 725 354 132 0
2022-08-17 15:48:34 GMT 35.194778 -80.950333 800 356 135 64
2022-08-17 15:48:33 GMT 35.194141 -80.950279 800 356 133 -160
2022-08-17 15:48:31 GMT 35.192890 -80.950188 800 356 130 0
2022-08-17 15:48:30 GMT 35.192291 -80.950142 800 356 133 0
2022-08-17 15:48:29 GMT 35.191662 -80.950089 800 355 130 -960
2022-08-17 15:48:27 GMT 35.190479 -80.949982 850 355 131 -960
2022-08-17 15:48:25 GMT 35.189259 -80.949883 875 354 130 -960
2022-08-17 15:48:23 GMT 35.188042 -80.949707 875 357 127 -960
2022-08-17 15:48:21 GMT 35.186939 -80.949661 900 355 135 -960
2022-08-17 15:48:20 GMT 35.186310 -80.949623 900 355 137 -960
2022-08-17 15:48:18 GMT 35.185032 -80.949501 1,000 356 131 -736
2022-08-17 15:48:17 GMT 35.183842 -80.949471 1,000 354 135 -736
2022-08-17 15:48:15 GMT 35.183220 -80.949402 1,000 355 136 -736
2022-08-17 15:48:14 GMT 35.182549 -80.949310 1,000 355 132 -736
2022-08-17 15:48:12 GMT 35.181351 -80.949173 1,100 357 137 -736
2022-08-17 15:48:11 GMT 35.180721 -80.949127 1,100 356 137 -736
2022-08-17 15:48:09 GMT 35.179440 -80.949051 1,100 356 130 -736
2022-08-17 15:48:07 GMT 35.178230 -80.948967 1,100 355 130 -736
2022-08-17 15:48:05 GMT 35.177059 -80.948868 1,100 355 134 -736
2022-08-17 15:48:03 GMT 35.175819 -80.948738 1,150 355 133 -736
2022-08-17 15:48:01 GMT 35.174610 -80.948624 1,150 356 137 -736
2022-08-17 15:48:00 GMT 35.173981 -80.948608 1,150 355 136 -736
2022-08-17 15:47:58 GMT 35.172661 -80.948486 1,200 356 130 -736
2022-08-17 15:47:56 GMT 35.171452 -80.948410 1,200 356 129 -736
2022-08-17 15:47:54 GMT 35.170292 -80.948311 1,225 356 134 -736
2022-08-17 15:47:52 GMT 35.169041 -80.948143 1,300 357 132 -736
2022-08-17 15:47:50 GMT 35.167858 -80.948036 1,300 358 136 -736
2022-08-17 15:47:48 GMT 35.166580 -80.947983 1,300 357 135 -736
2022-08-17 15:47:47 GMT 35.165981 -80.947960 1,400 356 135 -736
2022-08-17 15:47:45 GMT 35.164749 -80.947884 1,400 356 139 -736
2022-08-17 15:47:43 GMT 35.163460 -80.947792 1,400 355 137 -736
2022-08-17 15:47:41 GMT 35.162182 -80.947693 1,500 354 133 -736
2022-08-17 15:47:40 GMT 35.161560 -80.947594 1,500 355 132 -736
2022-08-17 15:47:39 GMT 35.160950 -80.947533 1,500 354 133 -736
2022-08-17 15:47:38 GMT 35.159672 -80.947380 1,500 355 125 -736
2022-08-17 15:47:35 GMT 35.158600 -80.947281 1,450 356 136 -736
2022-08-17 15:47:34 GMT 35.157318 -80.947121 1,500 357 133 -736
2022-08-17 15:47:32 GMT 35.156101 -80.947098 1,525 354 133 -736
2022-08-17 15:47:30 GMT 35.155491 -80.947052 1,525 353 133 -736
2022-08-17 15:47:28 GMT 35.154202 -80.946823 1,525 356 128 -736
2022-08-17 15:47:26 GMT 35.153069 -80.946709 1,600 358 135 -736
2022-08-17 15:47:25 GMT 35.151829 -80.946709 1,600 356 134 -736
2022-08-17 15:47:23 GMT 35.151230 -80.946648 1,600 357 135 -736
2022-08-17 15:47:22 GMT 35.149990 -80.946609 1,600 356 136 -736
2022-08-17 15:47:20 GMT 35.149319 -80.946602 1,600 354 134 -736
2022-08-17 15:47:19 GMT 35.148090 -80.946404 1,700 357 132 -832
2022-08-17 15:47:17 GMT 35.147480 -80.946404 1,700 356 133 -832
2022-08-17 15:47:15 GMT 35.146210 -80.946281 1,700 357 129 -832
2022-08-17 15:47:14 GMT 35.145050 -80.946373 1,800 352 135 -832
2022-08-17 15:47:12 GMT 35.143799 -80.946060 1,800 355 133 -832
2022-08-17 15:47:10 GMT 35.143150 -80.946037 1,800 354 130 -832
2022-08-17 15:47:08 GMT 35.141930 -80.945908 1,800 354 130 -832
2022-08-17 15:47:06 GMT 35.140732 -80.945747 1,800 355 129 -832
2022-08-17 15:47:04 GMT 35.139561 -80.945648 1,900 355 131 -832
2022-08-17 15:47:02 GMT 35.138340 -80.945534 1,900 355 132 -832
2022-08-17 15:47:01 GMT 35.137749 -80.945480 1,900 355 133 -832
2022-08-17 15:46:59 GMT 35.136570 -80.945351 2,000 356 138 -832
2022-08-17 15:46:57 GMT 35.135281 -80.945229 2,000 356 136 -832
2022-08-17 15:46:56 GMT 35.134060 -80.945152 2,000 356 140 -832
2022-08-17 15:46:54 GMT 35.133389 -80.945107 2,000 356 138 -832
2022-08-17 15:46:53 GMT 35.132759 -80.945061 2,000 356 139 -832
2022-08-17 15:46:51 GMT 35.131451 -80.944939 2,000 356 137 -832
2022-08-17 15:46:49 GMT 35.130192 -80.944847 2,100 356 137 -832
2022-08-17 15:46:47 GMT 35.128899 -80.944763 2,100 357 134 -832
2022-08-17 15:46:46 GMT 35.128311 -80.944710 2,100 357 136 -832
2022-08-17 15:46:45 GMT 35.127682 -80.944672 2,100 357 136 -832
2022-08-17 15:46:44 GMT 35.126411 -80.944603 2,100 356 135 -832
2022-08-17 15:46:42 GMT 35.125778 -80.944588 2,100 356 134 -832
2022-08-17 15:46:40 GMT 35.123932 -80.944443 2,200 355 136 -832
2022-08-17 15:46:38 GMT 35.122639 -80.944328 2,200 355 133 -832
2022-08-17 15:46:36 GMT 35.121399 -80.944229 2,200 355 133 -832
2022-08-17 15:46:34 GMT 35.120811 -80.944191 2,200 355 135 -832
2022-08-17 15:46:32 GMT 35.119579 -80.944038 2,200 356 136 -832
2022-08-17 15:46:31 GMT 35.118938 -80.943993 2,200 356 135 -832
2022-08-17 15:46:30 GMT 35.117710 -80.943871 2,200 356 138 -832
2022-08-17 15:46:28 GMT 35.117050 -80.943832 2,200 356 136 -832
2022-08-17 15:46:27 GMT 35.115871 -80.943718 2,300 357 143 -832
2022-08-17 15:46:25 GMT 35.115211 -80.943703 2,300 357 144 -832
2022-08-17 15:46:23 GMT 35.113819 -80.943604 2,300 357 138 -832
2022-08-17 15:46:22 GMT 35.112560 -80.943512 2,400 358 140 -832
2022-08-17 15:46:20 GMT 35.111912 -80.943481 2,400 358 140 -832
2022-08-17 15:46:18 GMT 35.110619 -80.943466 2,400 357 140 -128
2022-08-17 15:46:16 GMT 35.109268 -80.943398 2,400 357 137 -128
2022-08-17 15:46:14 GMT 35.107990 -80.943382 2,400 357 140 -128
2022-08-17 15:46:13 GMT 35.107342 -80.943367 2,400 356 141 64
2022-08-17 15:46:12 GMT 35.106701 -80.943352 2,400 357 144 64
2022-08-17 15:46:10 GMT 35.104691 -80.943260 2,400 359 150 64
2022-08-17 15:46:08 GMT 35.104038 -80.943253 2,400 359 155 64
2022-08-17 15:46:06 GMT 35.102638 -80.943222 2,400 2 160 64
2022-08-17 15:46:05 GMT 35.101280 -80.943230 2,400 5 176 -128
2022-08-17 15:46:03 GMT 35.099781 -80.943291 2,400 12 192 -128
2022-08-17 15:45:56 GMT 35.094635 -80.944237 2,425 13 171 -256
2022-08-17 15:45:45 GMT 35.086746 -80.947433 2,425 22 172 64
2022-08-17 15:45:34 GMT 35.079208 -80.951302 2,400 22 182 0
2022-08-17 15:45:25 GMT 35.070831 -80.955505 2,400 22 190 0
2022-08-17 15:45:14 GMT 35.062492 -80.959625 2,400 22 189 192
2022-08-17 15:45:03 GMT 35.053986 -80.964134 2,400 26 191 0
2022-08-17 15:44:54 GMT 35.046852 -80.970444 2,400 50 188 320
2022-08-17 15:44:41 GMT 35.042542 -80.981682 2,400 78 186 -192
2022-08-17 15:44:32 GMT 35.041637 -80.990929 2,450 84 183 -768
2022-08-17 15:44:23 GMT 35.040798 -81.001625 2,650 85 184 -1344
2022-08-17 15:44:10 GMT 35.039867 -81.014671 3,025 85 181 -1920
2022-08-17 15:44:02 GMT 35.039310 -81.022736 3,275 85 180 -1920
2022-08-17 15:43:52 GMT 35.038513 -81.033531 3,525 84 185 -960
2022-08-17 15:43:41 GMT 35.037586 -81.044479 3,700 84 194 -640
2022-08-17 15:43:30 GMT 35.036610 -81.055870 3,775 84 202 -512
2022-08-17 15:43:21 GMT 35.035633 -81.067596 3,850 84 212 -640
2022-08-17 15:43:10 GMT 35.034515 -81.080528 3,925 84 219 0
2022-08-17 15:42:59 GMT 35.033524 -81.093285 3,900 84 221 320
2022-08-17 15:42:50 GMT 35.032562 -81.105766 3,900 84 222 0
2022-08-17 15:42:39 GMT 35.031509 -81.118790 3,900 84 223 0
2022-08-17 15:42:28 GMT 35.030792 -81.131973 3,900 89 224 64
2022-08-17 15:42:18 GMT 35.033352 -81.152969 3,900 104 224 0
2022-08-17 15:42:08 GMT 35.034374 -81.157494 3,900 105 223 64
2022-08-17 15:41:58 GMT 35.037323 -81.170578 3,900 105 221 -192
2022-08-17 15:41:47 GMT 35.040024 -81.182632 3,950 105 220 -512
2022-08-17 15:41:36 GMT 35.042942 -81.195831 4,125 104 220 -960
2022-08-17 15:41:27 GMT 35.045547 -81.207619 4,275 104 222 -1024
2022-08-17 15:41:16 GMT 35.048248 -81.219917 4,425 105 223 -960
2022-08-17 15:41:06 GMT 35.051331 -81.232574 4,600 110 227 -960
2022-08-17 15:40:56 GMT 35.056595 -81.244514 4,775 128 232 -1024
2022-08-17 15:40:45 GMT 35.064217 -81.254478 4,900 135 231 0
2022-08-17 15:40:35 GMT 35.071991 -81.263985 4,900 134 234 0
2022-08-17 15:40:25 GMT 35.079941 -81.273659 4,900 134 232 0
2022-08-17 15:40:14 GMT 35.087631 -81.283211 4,900 134 231 0
2022-08-17 15:40:03 GMT 35.095779 -81.293221 4,900 134 231 0
2022-08-17 15:39:54 GMT 35.103424 -81.302643 4,900 134 231 0
2022-08-17 15:39:43 GMT 35.111050 -81.311989 4,900 134 231 0
2022-08-17 15:39:32 GMT 35.118988 -81.321701 4,900 134 231 0
2022-08-17 15:39:23 GMT 35.126770 -81.331169 4,900 134 231 0
2022-08-17 15:39:11 GMT 35.135056 -81.341263 4,900 134 231 0
2022-08-17 15:39:01 GMT 35.142426 -81.350342 4,900 134 230 0
2022-08-17 15:38:52 GMT 35.150478 -81.360336 4,900 134 230 0
2022-08-17 15:38:41 GMT 35.157600 -81.369148 4,900 134 231 -64
2022-08-17 15:38:30 GMT 35.166164 -81.379684 4,900 134 234 0
2022-08-17 15:38:20 GMT 35.174313 -81.389641 4,900 134 241 0
2022-08-17 15:38:09 GMT 35.182663 -81.399895 4,900 134 251 64
2022-08-17 15:38:00 GMT 35.191681 -81.411049 4,900 134 263 0
2022-08-17 15:37:47 GMT 35.201591 -81.423164 4,925 135 275 -320
2022-08-17 15:37:37 GMT 35.210438 -81.433640 5,000 138 281 -960
2022-08-17 15:37:26 GMT 35.221981 -81.443253 5,275 156 283 -1920
2022-08-17 15:37:16 GMT 35.235535 -81.447945 5,675 173 280 -2240
2022-08-17 15:37:06 GMT 35.248703 -81.449829 6,075 173 275 -2368
2022-08-17 15:36:53 GMT 35.264008 -81.451950 6,500 173 279 -1920
2022-08-17 15:36:47 GMT 35.271931 -81.452988 6,700 173 281 -2048
2022-08-17 15:36:42 GMT 35.279572 -81.454063 6,900 173 283 -2048
2022-08-17 15:36:35 GMT 35.290180 -81.455559 7,200 173 285 -2496
2022-08-17 15:36:27 GMT 35.299629 -81.456963 7,500 172 285 -2496
2022-08-17 15:36:23 GMT 35.304108 -81.457619 7,650 172 285 -2560
2022-08-17 15:36:16 GMT 35.312618 -81.458893 7,950 172 285 -2624
2022-08-17 15:36:13 GMT 35.317566 -81.459618 8,100 172 284 -2624
2022-08-17 15:36:06 GMT 35.326073 -81.460938 8,400 172 284 -2560
2022-08-17 15:36:01 GMT 35.331940 -81.461807 8,575 172 284 -2496
2022-08-17 15:35:57 GMT 35.339401 -81.462997 8,800 172 285 -2176
2022-08-17 15:35:52 GMT 35.345810 -81.463966 8,975 172 285 -2240
2022-08-17 15:35:45 GMT 35.353455 -81.465225 9,200 171 286 -2240
2022-08-17 15:35:41 GMT 35.359219 -81.466255 9,350 172 288 -1920
2022-08-17 15:35:35 GMT 35.368248 -81.467773 9,575 171 289 -1920
2022-08-17 15:35:30 GMT 35.380028 -81.469994 9,900 169 292 -2304
2022-08-17 15:35:24 GMT 35.381096 -81.470230 10,050 168 292 -2176
2022-08-17 15:35:19 GMT 35.390129 -81.472504 10,150 160 297 -1664
2022-08-17 15:35:15 GMT 35.393948 -81.473846 10,225 160 297 -1664
2022-08-17 15:35:05 GMT 35.407028 -81.481735 10,500 143 305 -1344
2022-08-17 15:34:54 GMT 35.418137 -81.494179 10,700 128 310 -896
2022-08-17 15:34:43 GMT 35.425926 -81.509148 10,825 115 318 -256
2022-08-17 15:34:36 GMT 35.430222 -81.520958 10,875 114 330 -448
2022-08-17 15:34:33 GMT 35.432877 -81.528564 10,925 113 329 -512
2022-08-17 15:34:27 GMT 35.435944 -81.536919 10,950 115 334 -192
2022-08-17 15:34:22 GMT 35.439468 -81.545624 10,950 119 344 384
2022-08-17 15:34:12 GMT 35.449768 -81.563416 10,850 134 366 64
2022-08-17 15:34:00 GMT 35.463547 -81.577438 10,850 146 381 -64
2022-08-17 15:33:51 GMT 35.479137 -81.589790 10,875 147 388 -64
2022-08-17 15:33:39 GMT 35.495708 -81.602531 10,875 149 387 0
2022-08-17 15:33:30 GMT 35.512207 -81.614113 10,875 151 388 0
2022-08-17 15:33:18 GMT 35.528595 -81.624756 10,875 151 389 64
2022-08-17 15:33:09 GMT 35.542831 -81.634422 10,875 145 389 0
2022-08-17 15:33:06 GMT 35.550220 -81.639931 10,875 145 389 0
2022-08-17 15:33:00 GMT 35.557484 -81.646126 10,875 143 388 0
2022-08-17 15:32:57 GMT 35.561394 -81.649689 10,850 141 388 -64
2022-08-17 15:32:48 GMT 35.574520 -81.663483 10,875 137 389 0
2022-08-17 15:32:36 GMT 35.588745 -81.679688 10,875 137 388 0
2022-08-17 15:32:28 GMT 35.599686 -81.691872 10,875 141 387 -64
2022-08-17 15:32:25 GMT 35.605850 -81.698311 10,875 141 387 -64
2022-08-17 15:32:15 GMT 35.617676 -81.709763 10,875 143 387 0
2022-08-17 15:32:08 GMT 35.629082 -81.719696 10,875 146 386 0
2022-08-17 15:32:05 GMT 35.633835 -81.723579 10,875 146 386 0
2022-08-17 15:31:54 GMT 35.650223 -81.736626 10,875 146 388 64
2022-08-17 15:31:45 GMT 35.664368 -81.747955 10,875 146 387 0
2022-08-17 15:31:33 GMT 35.681488 -81.761803 10,875 146 389 -64
2022-08-17 15:31:24 GMT 35.696548 -81.773987 10,875 146 389 0
2022-08-17 15:31:14 GMT 35.709431 -81.784157 10,875 148 389 0
2022-08-17 15:31:10 GMT 35.716366 -81.789352 10,875 148 389 0
2022-08-17 15:31:05 GMT 35.723396 -81.794380 10,875 149 390 128
2022-08-17 15:31:01 GMT 35.729446 -81.798882 10,850 148 391 128
2022-08-17 15:30:52 GMT 35.749466 -81.820274 10,875 129 391 -64
2022-08-17 15:30:44 GMT 35.760544 -81.838135 10,875 126 390 0
2022-08-17 15:30:37 GMT 35.760544 -81.838135 10,875 126 389 0
2022-08-17 15:30:34 GMT 35.763756 -81.843468 10,875 126 389 0
2022-08-17 15:30:25 GMT 35.774323 -81.861176 10,875 126 390 -64
2022-08-17 15:30:20 GMT 35.778465 -81.868134 10,875 126 390 -64
2022-08-17 15:30:14 GMT 35.784439 -81.878181 10,875 126 388 0
2022-08-17 15:30:05 GMT 35.794556 -81.895126 10,875 126 389 -64
2022-08-17 15:29:55 GMT 35.805981 -81.914238 10,875 125 388 0
2022-08-17 15:29:38 GMT 35.824646 -81.944275 10,875 131 388 0
2022-08-17 15:29:32 GMT 35.830994 -81.952805 10,850 133 389 64
2022-08-17 15:29:21 GMT 35.845688 -81.969872 10,850 138 389 -64
2022-08-17 15:29:12 GMT 35.858185 -81.983643 10,875 138 390 -64
2022-08-17 15:29:01 GMT 35.872101 -81.999146 10,875 137 389 -64
2022-08-17 15:28:50 GMT 35.886383 -82.015686 10,875 136 388 64
2022-08-17 15:28:41 GMT 35.899292 -82.030731 10,850 136 388 64
2022-08-17 15:28:32 GMT 35.911240 -82.044579 10,875 136 389 0
2022-08-17 15:28:29 GMT 35.914398 -82.048241 10,875 136 389 0
2022-08-17 15:28:20 GMT 35.925900 -82.061615 10,875 136 386 0
2022-08-17 15:28:13 GMT 35.933990 -82.071075 10,875 136 387 64
2022-08-17 15:28:10 GMT 35.939896 -82.077888 10,875 136 386 64
2022-08-17 15:28:04 GMT 35.946568 -82.085579 10,875 136 386 0
2022-08-17 15:27:57 GMT 35.955086 -82.095337 10,850 137 387 0
2022-08-17 15:27:52 GMT 35.962723 -82.104103 10,875 137 388 0
2022-08-17 15:27:49 GMT 35.966866 -82.108719 10,875 137 386 64
2022-08-17 15:27:43 GMT 35.973660 -82.116257 10,875 137 387 64
2022-08-17 15:27:39 GMT 35.980957 -82.124405 10,875 137 386 0
2022-08-17 15:27:32 GMT 35.988007 -82.132187 10,850 138 387 0
2022-08-17 15:27:28 GMT 35.994141 -82.138992 10,850 138 387 -64
2022-08-17 15:27:22 GMT 36.002243 -82.147980 10,875 137 386 0
2022-08-17 15:27:18 GMT 36.007969 -82.154358 10,875 137 386 0
2022-08-17 15:27:13 GMT 36.014374 -82.161484 10,875 137 386 0
2022-08-17 15:27:07 GMT 36.023666 -82.171783 10,875 137 385 0
2022-08-17 15:27:00 GMT 36.033142 -82.182426 10,875 137 384 -128
2022-08-17 15:26:57 GMT 36.035389 -82.184982 10,875 137 385 -192
2022-08-17 15:26:53 GMT 36.041840 -82.192207 10,875 137 386 0
2022-08-17 15:26:46 GMT 36.049393 -82.200737 10,875 137 386 64
2022-08-17 15:26:42 GMT 36.055573 -82.207718 10,875 137 387 -64
2022-08-17 15:26:36 GMT 36.063263 -82.216301 10,875 137 387 0
2022-08-17 15:26:32 GMT 36.068710 -82.222427 10,875 138 388 -128
2022-08-17 15:26:29 GMT 36.073425 -82.227570 10,875 138 389 -64
2022-08-17 15:26:26 GMT 36.076633 -82.231148 10,875 138 389 -64
2022-08-17 15:26:22 GMT 36.082535 -82.237701 10,875 138 388 192
2022-08-17 15:26:16 GMT 36.090832 -82.246864 10,850 138 388 0
2022-08-17 15:26:11 GMT 36.096222 -82.252808 10,850 138 390 64
2022-08-17 15:26:07 GMT 36.101215 -82.258324 10,850 138 392 0
2022-08-17 15:26:04 GMT 36.105961 -82.263580 10,850 138 393 -64
2022-08-17 15:26:00 GMT 36.110687 -82.268768 10,875 138 391 -64
2022-08-17 15:25:57 GMT 36.114807 -82.273224 10,875 139 392 0
2022-08-17 15:25:54 GMT 36.118927 -82.277580 10,875 139 392 0
2022-08-17 15:25:50 GMT 36.124489 -82.283333 10,875 140 390 0
2022-08-17 15:25:45 GMT 36.133194 -82.292038 10,875 141 388 64
2022-08-17 15:25:40 GMT 36.138969 -82.297707 10,875 141 389 -128
2022-08-17 15:25:37 GMT 36.143623 -82.302269 10,875 141 389 64
2022-08-17 15:25:34 GMT 36.147903 -82.306366 10,875 141 389 128
2022-08-17 15:25:27 GMT 36.158241 -82.316467 10,875 141 390 -128
2022-08-17 15:25:17 GMT 36.173264 -82.331085 10,875 141 389 64
2022-08-17 15:25:12 GMT 36.180027 -82.337738 10,875 141 389 128
2022-08-17 15:25:09 GMT 36.183563 -82.341209 10,875 140 388 64
2022-08-17 15:25:05 GMT 36.188416 -82.346130 10,850 140 389 192
2022-08-17 15:24:56 GMT 36.201580 -82.360123 10,875 137 391 0
2022-08-17 15:24:49 GMT 36.211033 -82.371223 10,875 135 391 0
2022-08-17 15:24:46 GMT 36.214989 -82.376190 10,875 134 391 0
2022-08-17 15:24:38 GMT 36.223984 -82.388130 10,875 130 390 0
2022-08-17 15:24:27 GMT 36.236309 -82.405991 10,850 130 390 0
2022-08-17 15:24:23 GMT 36.241104 -82.412949 10,875 130 390 -64
2022-08-17 15:24:18 GMT 36.248135 -82.423172 10,875 130 390 0
2022-08-17 15:24:15 GMT 36.251530 -82.428139 10,875 130 390 0
2022-08-17 15:24:07 GMT 36.260284 -82.440887 10,875 130 390 0
2022-08-17 15:24:03 GMT 36.264519 -82.447014 10,875 130 389 0
2022-08-17 15:23:57 GMT 36.272324 -82.458405 10,875 130 389 -64
2022-08-17 15:23:46 GMT 36.284454 -82.476135 10,875 130 390 0
2022-08-17 15:23:36 GMT 36.296494 -82.493652 10,875 130 389 0
2022-08-17 15:23:33 GMT 36.300797 -82.499947 10,875 130 389 0
2022-08-17 15:23:26 GMT 36.308533 -82.511162 10,875 130 390 64
2022-08-17 15:23:15 GMT 36.320522 -82.528770 10,875 130 390 0
2022-08-17 15:23:05 GMT 36.332531 -82.546364 10,875 130 390 0
2022-08-17 15:22:54 GMT 36.344788 -82.564201 10,875 130 389 0
2022-08-17 15:22:45 GMT 36.356369 -82.581078 10,875 130 389 -64
2022-08-17 15:22:35 GMT 36.368423 -82.598778 10,875 129 388 64
2022-08-17 15:22:24 GMT 36.380310 -82.616676 10,850 127 389 0
2022-08-17 15:22:13 GMT 36.391327 -82.637115 10,875 118 388 64
2022-08-17 15:22:04 GMT 36.399078 -82.656265 10,875 114 389 0
2022-08-17 15:21:53 GMT 36.406967 -82.677902 10,850 115 392 -64
2022-08-17 15:21:42 GMT 36.415604 -82.699471 10,875 117 391 0
2022-08-17 15:21:33 GMT 36.424427 -82.719513 10,875 119 389 0
2022-08-17 15:21:22 GMT 36.433178 -82.738853 10,875 119 390 0
2022-08-17 15:21:12 GMT 36.442245 -82.758980 10,875 119 390 64
2022-08-17 15:21:06 GMT 36.447048 -82.769478 10,875 119 389 0
2022-08-17 15:21:01 GMT 36.451195 -82.778648 10,875 119 390 0
2022-08-17 15:20:57 GMT 36.456070 -82.789368 10,875 119 390 0
2022-08-17 15:20:51 GMT 36.460552 -82.799103 10,875 119 390 0
2022-08-17 15:20:46 GMT 36.464676 -82.808075 10,875 119 390 0
2022-08-17 15:20:40 GMT 36.470032 -82.819801 10,875 119 391 0
2022-08-17 15:20:30 GMT 36.479031 -82.839310 10,875 119 391 0
2022-08-17 15:20:20 GMT 36.488892 -82.860779 10,875 119 392 -64
2022-08-17 15:20:14 GMT 36.493927 -82.871758 10,875 119 392 0
2022-08-17 15:20:05 GMT 36.501564 -82.888397 10,875 119 391 0
2022-08-17 15:20:01 GMT 36.506287 -82.898766 10,875 119 391 0
2022-08-17 15:19:57 GMT 36.509766 -82.906441 10,875 119 391 0
2022-08-17 15:19:53 GMT 36.519196 -82.926979 10,875 119 391 64
2022-08-17 15:19:46 GMT 36.519196 -82.926979 10,875 119 391 64
2022-08-17 15:19:43 GMT 36.521942 -82.933044 10,875 119 391 0
2022-08-17 15:19:33 GMT 36.530823 -82.952499 10,875 119 392 -64
2022-08-17 15:19:26 GMT 36.537689 -82.967583 10,875 119 391 0
2022-08-17 15:19:18 GMT 36.544418 -82.982254 10,875 119 391 0
2022-08-17 15:19:15 GMT 36.546982 -82.987923 10,875 119 390 0
2022-08-17 15:19:05 GMT 36.556366 -83.008461 10,875 119 390 0
2022-08-17 15:18:59 GMT 36.561615 -83.019943 10,875 119 390 0
2022-08-17 15:18:54 GMT 36.565853 -83.029350 10,875 119 390 0
2022-08-17 15:18:44 GMT 36.574650 -83.048637 10,875 119 389 0
2022-08-17 15:18:33 GMT 36.584106 -83.069229 10,875 119 389 0
2022-08-17 15:18:23 GMT 36.593597 -83.089249 10,875 121 389 0
2022-08-17 15:18:15 GMT 36.600395 -83.102455 10,875 123 388 0
2022-08-17 15:18:13 GMT 36.603745 -83.108536 10,875 125 389 0
2022-08-17 15:18:03 GMT 36.613846 -83.125717 10,875 126 389 0
2022-08-17 15:18:00 GMT 36.616592 -83.130157 10,875 127 389 64
2022-08-17 15:17:52 GMT 36.626091 -83.145409 10,875 127 388 -64
2022-08-17 15:17:30 GMT 36.649364 -83.182869 10,875 127 388 0
2022-08-17 15:17:15 GMT 36.667664 -83.212433 10,875 127 388 0
2022-08-17 15:17:07 GMT 36.674458 -83.223419 10,875 127 388 0
2022-08-17 15:17:02 GMT 36.681675 -83.235107 10,875 127 388 0
2022-08-17 15:16:48 GMT 36.695801 -83.257996 10,875 127 388 0
2022-08-17 15:16:41 GMT 36.703415 -83.270172 10,875 127 388 0
2022-08-17 15:16:33 GMT 36.713516 -83.286438 10,875 127 388 0
2022-08-17 15:16:23 GMT 36.724922 -83.304825 10,875 127 387 0
2022-08-17 15:16:11 GMT 36.736542 -83.323631 10,875 127 387 0
2022-08-17 15:15:59 GMT 36.750851 -83.346725 10,875 127 387 0
2022-08-17 15:15:49 GMT 36.760391 -83.362144 10,875 127 387 0
2022-08-17 15:15:40 GMT 36.770050 -83.377708 10,875 127 388 0
2022-08-17 15:15:31 GMT 36.781631 -83.396584 10,875 127 388 -64
2022-08-17 15:15:20 GMT 36.792793 -83.414688 10,875 127 388 0
2022-08-17 15:15:09 GMT 36.805504 -83.435257 10,875 127 387 0
2022-08-17 15:14:59 GMT 36.815643 -83.451515 10,875 127 388 0
2022-08-17 15:14:46 GMT 36.829803 -83.474411 10,875 127 390 -64
2022-08-17 15:14:39 GMT 36.838413 -83.488319 10,850 127 390 0
2022-08-17 15:14:27 GMT 36.849960 -83.507141 10,875 127 391 0
2022-08-17 15:14:17 GMT 36.862484 -83.527557 10,875 127 390 0
2022-08-17 15:14:06 GMT 36.873917 -83.546120 10,875 127 390 0
2022-08-17 15:13:56 GMT 36.884766 -83.563820 10,875 127 389 0
2022-08-17 15:13:39 GMT 36.904358 -83.595734 10,875 127 389 0
2022-08-17 15:13:28 GMT 36.918903 -83.619514 10,875 127 388 0
2022-08-17 15:13:26 GMT 36.918903 -83.619514 10,875 127 388 0
2022-08-17 15:13:15 GMT 36.929718 -83.637161 10,875 127 389 0
2022-08-17 15:13:10 GMT 36.936264 -83.647919 10,875 127 389 0
2022-08-17 15:12:58 GMT 36.955818 -83.680115 10,875 127 388 0
2022-08-17 15:12:52 GMT 36.966888 -83.698112 10,875 127 388 0
2022-08-17 15:12:41 GMT 36.966888 -83.698112 10,875 127 388 0
2022-08-17 15:11:18 GMT 37.057537 -83.846642 10,875 127 389 0
2022-08-17 15:11:12 GMT 37.063110 -83.855782 10,875 127 389 0
2022-08-17 15:11:05 GMT 37.072037 -83.870506 10,875 127 389 0
2022-08-17 15:10:35 GMT 37.103394 -83.921928 10,875 127 388 0
2022-08-17 15:10:27 GMT 37.112236 -83.936440 0 127 388 0
2022-08-17 15:10:19 GMT 37.120987 -83.950714 10,875 127 388 0
2022-08-17 15:09:57 GMT 37.144867 -83.989891 10,875 127 389 0
2022-08-17 15:09:52 GMT 37.151413 -84.000648 10,875 127 388 0
2022-08-17 15:09:21 GMT 37.185883 -84.057678 10,875 126 387 0
2022-08-17 15:09:02 GMT 37.205383 -84.089882 10,875 127 388 0
2022-08-17 15:08:50 GMT 37.225834 -84.123611 11,000 127 388
2022-08-17 15:08:33 GMT 37.242779 -84.151665 11,000 127 388
2022-08-17 15:07:49 GMT 37.289165 -84.228333 11,000 127 388
2022-08-17 15:07:32 GMT 37.308334 -84.260002 11,000 126 389
2022-08-17 15:06:46 GMT 37.356388 -84.340553 11,000 127 388
2022-08-17 15:06:31 GMT 37.373055 -84.368057 11,000 127 390
We lost coverage of the aircraft here for a total of 5 minutes
2022-08-17 15:01:09 GMT 37.721512 -84.953453 10,875 126 385 0
2022-08-17 15:00:11 GMT 37.777420 -85.048447 10,875 126 389 0
2022-08-17 14:57:31 GMT 37.950085 -85.343651 10,875 126 387 -64
2022-08-17 14:57:27 GMT 37.952866 -85.348396 10,875 126 387 0
2022-08-17 14:57:11 GMT 37.971222 -85.380013 10,875 126 387 -64
2022-08-17 14:57:00 GMT 37.983032 -85.400291 10,875 126 387 -64
2022-08-17 14:56:55 GMT 37.986923 -85.407074 10,875 126 387 0
2022-08-17 14:56:47 GMT 37.995392 -85.421684 10,875 126 387 0
2022-08-17 14:56:40 GMT 38.002918 -85.434647 10,875 126 387 -64
2022-08-17 14:56:37 GMT 38.006332 -85.440498 10,875 126 387 0
2022-08-17 14:56:30 GMT 38.013977 -85.453705 10,875 126 388 -64
2022-08-17 14:56:26 GMT 38.018143 -85.460838 10,875 126 389 -64
2022-08-17 14:56:20 GMT 38.024612 -85.472076 10,875 126 388 -64
2022-08-17 14:56:17 GMT 38.029083 -85.479828 10,875 126 389 0
2022-08-17 14:56:06 GMT 38.040115 -85.498947 10,875 126 389 64
2022-08-17 14:55:56 GMT 38.050110 -85.517517 10,900 126 381 -192
2022-08-17 14:55:55 GMT 38.051170 -85.519310 10,900 126 381 -192
2022-08-17 14:55:53 GMT 38.053280 -85.522888 10,900 126 381 -192
2022-08-17 14:55:52 GMT 38.055389 -85.526466 10,900 126 381 0
2022-08-17 14:55:50 GMT 38.056438 -85.528259 10,900 126 381 0
2022-08-17 14:55:48 GMT 38.058552 -85.531837 10,900 126 381 0
2022-08-17 14:55:47 GMT 38.059601 -85.533630 10,900 126 381 0
2022-08-17 14:55:45 GMT 38.061710 -85.537209 10,900 126 381 0
2022-08-17 14:55:43 GMT 38.063820 -85.540802 10,900 126 381 0
2022-08-17 14:55:42 GMT 38.065929 -85.544380 10,900 126 381 0
2022-08-17 14:55:40 GMT 38.066990 -85.546173 10,900 126 381 0
2022-08-17 14:55:38 GMT 38.069092 -85.549751 10,900 126 381 0
2022-08-17 14:55:36 GMT 38.071201 -85.553337 10,900 126 381 0
2022-08-17 14:55:35 GMT 38.073311 -85.556923 10,900 126 381 0
2022-08-17 14:55:33 GMT 38.075420 -85.560501 10,900 126 381 0
2022-08-17 14:55:31 GMT 38.076469 -85.562286 10,900 126 381 0
2022-08-17 14:55:29 GMT 38.078579 -85.565880 10,900 126 381 0
2022-08-17 14:55:28 GMT 38.079639 -85.567673 10,900 126 381 0
2022-08-17 14:55:26 GMT 38.081741 -85.571251 10,900 126 381 0
2022-08-17 14:55:24 GMT 38.083649 -85.574562 10,900 126 387 0
2022-08-17 14:55:23 GMT 38.085800 -85.578194 10,900 126 387 0
2022-08-17 14:55:21 GMT 38.086868 -85.580009 10,900 126 387 0
2022-08-17 14:55:19 GMT 38.089008 -85.583679 10,900 126 385 192
2022-08-17 14:55:17 GMT 38.091148 -85.587288 10,900 126 385 192
2022-08-17 14:55:16 GMT 38.092232 -85.589104 10,900 126 385 192
2022-08-17 14:55:15 GMT 38.094440 -85.592819 10,900 126 384 192
2022-08-17 14:55:12 GMT 38.096569 -85.596428 10,900 126 384 192
2022-08-17 14:55:11 GMT 38.097370 -85.597649 10,900 126 403 192
2022-08-17 14:55:10 GMT 38.098480 -85.599541 10,900 126 403 192
2022-08-17 14:55:08 GMT 38.100712 -85.603340 10,900 126 403 192
2022-08-17 14:55:07 GMT 38.102749 -85.606819 10,900 126 409 -896
2022-08-17 14:55:05 GMT 38.103882 -85.608749 10,900 126 409 -896
2022-08-17 14:55:04 GMT 38.106140 -85.612602 10,900 126 409 -896
2022-08-17 14:55:02 GMT 38.108330 -85.616272 10,900 126 412 -896
2022-08-17 14:55:00 GMT 38.109459 -85.618210 10,900 126 412 -896
2022-08-17 14:54:58 GMT 38.111729 -85.622093 10,900 126 412 -896
2022-08-17 14:54:57 GMT 38.112659 -85.623779 11,000 126 420 -896
2022-08-17 14:54:55 GMT 38.114979 -85.627731 11,000 126 420 -896
2022-08-17 14:54:54 GMT 38.116138 -85.629707 11,000 126 420 -896
2022-08-17 14:54:53 GMT 38.117290 -85.631691 11,000 126 420 -896
2022-08-17 14:54:51 GMT 38.119591 -85.635559 11,100 126 417 -896
2022-08-17 14:54:49 GMT 38.121891 -85.639481 11,100 126 417 3904
2022-08-17 14:54:47 GMT 38.124290 -85.643646 11,300 126 410 3904
2022-08-17 14:54:46 GMT 38.126560 -85.647522 11,300 126 410 3904
2022-08-17 14:54:43 GMT 38.129169 -85.652206 11,700 127 383 3904
2022-08-17 14:54:42 GMT 38.130260 -85.653999 11,700 127 385 3904
2022-08-17 14:54:40 GMT 38.132389 -85.657532 11,700 126 390 3904
2022-08-17 14:54:39 GMT 38.133652 -85.659843 11,700 127 377 3904
2022-08-17 14:54:37 GMT 38.135731 -85.663261 11,700 127 387 3904
2022-08-17 14:54:35 GMT 38.137829 -85.666817 16,000 127 396 3904
2022-08-17 14:54:34 GMT 38.138969 -85.668533 16,000 126 413 3904
2022-08-17 14:54:31 GMT 38.142250 -85.674370 16,000 126 413 3904
2022-08-17 14:54:18 GMT 38.147919 -85.682350 16,000 125 523 -3904
2022-08-17 14:54:17 GMT 38.149330 -85.684837 16,000 125 523 -3904
2022-08-17 14:54:15 GMT 38.152161 -85.689827 16,000 125 523 -3904
2022-08-17 14:54:14 GMT 38.154980 -85.694809 16,000 125 523 -3904
2022-08-17 14:54:12 GMT 38.156399 -85.697311 16,000 125 523 -3904
2022-08-17 14:54:11 GMT 38.159222 -85.702293 16,000 125 523 -3904
2022-08-17 14:54:08 GMT 38.162048 -85.707283 16,000 125 523 -3904
2022-08-17 14:54:07 GMT 38.163460 -85.709770 16,000 125 523 -3904
2022-08-17 14:54:05 GMT 38.166279 -85.714760 16,000 125 523 -3904
2022-08-17 14:54:04 GMT 38.167690 -85.717247 16,000 125 523 -3904
2022-08-17 14:54:02 GMT 38.170521 -85.722237 16,000 125 523 -3904
2022-08-17 14:54:01 GMT 38.171928 -85.724731 16,000 125 523 -3904
2022-08-17 14:53:59 GMT 38.174751 -85.729721 16,000 125 523 -3904
2022-08-17 14:53:57 GMT 38.177582 -85.734711 16,000 125 523 -3904
2022-08-17 14:53:56 GMT 38.178989 -85.737198 16,000 125 523 -3904
2022-08-17 14:53:55 GMT 38.181808 -85.742188 16,000 125 523 -3904
2022-08-17 14:53:53 GMT 38.183220 -85.744682 16,000 125 523 -3904
2022-08-17 14:53:51 GMT 38.186050 -85.749672 16,000 125 523 -3904
2022-08-17 14:53:50 GMT 38.187462 -85.752159 16,000 125 523 -1952
2022-08-17 14:53:48 GMT 38.190281 -85.757149 16,000 125 523 -1952
2022-08-17 14:53:47 GMT 38.191490 -85.758942 16,000 125 535 -1952
2022-08-17 14:53:45 GMT 38.194302 -85.764076 16,000 125 527 -1952
2022-08-17 14:53:44 GMT 38.195702 -85.766609 16,000 125 527 -1952
2022-08-17 14:53:42 GMT 38.198711 -85.772087 16,000 125 500 -1952
2022-08-17 14:53:41 GMT 38.200039 -85.774483 16,000 125 500 -1952
2022-08-17 14:53:40 GMT 38.202888 -85.779846 16,000 126 473 -1952
2022-08-17 14:53:38 GMT 38.204239 -85.782280 16,000 126 466 -1952
2022-08-17 14:53:36 GMT 38.206921 -85.785881 16,700 123 473 -1952
2022-08-17 14:53:35 GMT 38.208149 -85.788681 16,700 124 459 -1952
2022-08-17 14:53:34 GMT 38.210548 -85.793854 16,700 126 440 -1952
2022-08-17 14:53:30 GMT 38.213474 -85.797249 16,400 126 439 -4352
2022-08-17 14:53:26 GMT 38.221619 -85.811462 16,825 125 443 -4672
2022-08-17 14:53:23 GMT 38.221619 -85.811462 16,925 125 442 -4672
2022-08-17 14:53:18 GMT 38.226562 -85.820114 17,250 125 444 -4736
2022-08-17 14:53:15 GMT 38.235077 -85.835228 17,775 125 446 -4800
2022-08-17 14:53:11 GMT 38.235077 -85.835228 17,825 125 446 -4864
2022-08-17 14:53:09 GMT 38.238335 -85.840958 18,050 125 447 -4992
2022-08-17 14:53:05 GMT 38.246761 -85.855942 18,475 125 448 -5120
2022-08-17 14:53:02 GMT 38.246761 -85.855942 18,650 125 448 -5312
2022-08-17 14:52:59 GMT 38.251789 -85.864662 19,025 126 448 -5888
2022-08-17 14:52:56 GMT 38.255402 -85.870720 19,325 128 446 -6080
2022-08-17 14:52:53 GMT 38.258213 -85.875229 19,550 129 446 -5760
2022-08-17 14:52:50 GMT 38.261536 -85.880302 19,775 132 447 -5120
2022-08-17 14:52:45 GMT 38.269245 -85.890938 20,250 134 447 -4992
2022-08-17 14:52:41 GMT 38.279480 -85.903214 20,875 138 446 -5696
2022-08-17 14:52:35 GMT 38.285492 -85.909561 21,250 141 444 -5696
2022-08-17 14:52:32 GMT 38.290695 -85.914665 22,125 144 440 -5248
2022-08-17 14:52:29 GMT 38.294010 -85.917740 21,725 143 441 -5376
2022-08-17 14:52:25 GMT 38.300621 -85.923836 21,925 144 441 -5312
2022-08-17 14:52:22 GMT 38.309692 -85.932198 22,450 144 439 -4992
2022-08-17 14:52:16 GMT 38.314316 -85.936401 22,775 144 439 -4992
2022-08-17 14:52:11 GMT 38.324524 -85.945755 23,300 144 437 -4864
2022-08-17 14:52:08 GMT 38.327480 -85.948433 23,425 144 436 -4736
2022-08-17 14:52:06 GMT 38.330742 -85.951416 23,600 144 435 -4416
2022-08-17 14:52:02 GMT 38.340088 -85.959953 24,100 144 435 -4032
2022-08-17 14:51:59 GMT 38.342564 -85.962166 24,100 144 436 -3968
2022-08-17 14:51:56 GMT 38.349270 -85.968315 24,350 144 437 -3776
2022-08-17 14:51:52 GMT 38.356201 -85.974625 24,625 144 437 -3520
2022-08-17 14:51:49 GMT 38.359497 -85.977600 24,900 144 438 -3520
2022-08-17 14:51:46 GMT 38.365097 -85.982704 24,900 144 439 -3072
2022-08-17 14:51:39 GMT 38.378174 -85.994606 25,175 144 441 -1408
2022-08-17 14:51:36 GMT 38.382339 -85.998405 25,200 144 443 -960
2022-08-17 14:51:31 GMT 38.396118 -86.010910 25,325 144 448 -832
2022-08-17 14:51:28 GMT 38.399689 -86.014122 25,325 144 450 -832
2022-08-17 14:51:25 GMT 38.399689 -86.014122 25,350 144 450 -832
2022-08-17 14:51:20 GMT 38.408340 -86.022011 25,475 143 455 -704
2022-08-17 14:51:17 GMT 38.413837 -86.026978 25,450 144 454 -704
2022-08-17 14:51:14 GMT 38.417404 -86.030296 25,475 144 456 -704
2022-08-17 14:51:10 GMT 38.426056 -86.038414 25,525 142 458 -576
2022-08-17 14:51:05 GMT 38.434753 -86.047134 25,525 140 460 64
2022-08-17 14:50:57 GMT 38.451141 -86.065399 25,525 136 464 -128
2022-08-17 14:50:54 GMT 38.451141 -86.065399 25,525 136 464 -64
2022-08-17 14:50:47 GMT 38.462063 -86.079041 25,400 133 464 1792
2022-08-17 14:50:43 GMT 38.467712 -86.086540 25,350 132 464 1856
2022-08-17 14:50:38 GMT 38.475861 -86.097824 25,175 132 465 1728
2022-08-17 14:50:34 GMT 38.482086 -86.106544 25,075 132 465 1600
2022-08-17 14:50:28 GMT 38.491013 -86.119141 24,900 131 463 1472
2022-08-17 14:50:25 GMT 38.497742 -86.128693 24,800 132 463 1472
2022-08-17 14:50:18 GMT 38.505615 -86.139801 24,700 131 462 1408
2022-08-17 14:50:15 GMT 38.511597 -86.148315 24,600 131 461 1536
2022-08-17 14:50:12 GMT 38.511597 -86.148315 24,550 131 460 1536
2022-08-17 14:50:06 GMT 38.520672 -86.161255 24,325 131 460 1984
2022-08-17 14:50:02 GMT 38.526539 -86.169556 24,250 132 460 1984
2022-08-17 14:49:57 GMT 38.541687 -86.190071 23,975 134 459 1280
2022-08-17 14:49:52 GMT 38.541687 -86.190071 24,000 135 458 1152
2022-08-17 14:49:45 GMT 38.551769 -86.201111 23,875 142 454 896
2022-08-17 14:49:40 GMT 38.561966 -86.210075 23,825 149 449 768
2022-08-17 14:49:34 GMT 38.578911 -86.221008 23,675 157 442 960
2022-08-17 14:49:30 GMT 38.578911 -86.221008 23,650 158 441 960
2022-08-17 14:49:24 GMT 38.591572 -86.226685 23,525 163 437 1536
2022-08-17 14:49:20 GMT 38.598183 -86.229004 23,400 166 436 1920
2022-08-17 14:49:14 GMT 38.612595 -86.232704 23,125 171 434 2496
2022-08-17 14:49:10 GMT 38.619553 -86.233902 22,975 173 433 2368
2022-08-17 14:49:02 GMT 38.635143 -86.235718 22,775 174 434 2240
2022-08-17 14:48:59 GMT 38.640408 -86.236267 22,600 175 435 1984
2022-08-17 14:48:55 GMT 38.650635 -86.237419 22,425 175 435 1792
2022-08-17 14:48:52 GMT 38.653427 -86.237717 22,375 175 435 1728
2022-08-17 14:48:49 GMT 38.659447 -86.238342 22,250 175 434 1536
2022-08-17 14:48:42 GMT 38.675087 -86.240051 22,125 175 432 1280
2022-08-17 14:48:39 GMT 38.688446 -86.241486 21,975 175 430 1280
2022-08-17 14:48:33 GMT 38.694359 -86.242065 21,900 175 429 1280
2022-08-17 14:48:27 GMT 38.707439 -86.243469 21,750 175 427 1600
2022-08-17 14:48:23 GMT 38.713913 -86.244141 21,675 175 426 1600
2022-08-17 14:48:20 GMT 38.715683 -86.244347 21,650 175 426 1664
2022-08-17 14:48:17 GMT 38.723373 -86.245186 21,550 175 425 1792
2022-08-17 14:48:12 GMT 38.736099 -86.246498 21,325 175 424 1792
2022-08-17 14:48:07 GMT 38.745300 -86.247513 21,200 175 423 1664
2022-08-17 14:48:02 GMT 38.752735 -86.248291 21,000 175 421 1600
2022-08-17 14:47:58 GMT 38.762047 -86.249268 20,975 175 421 1664
2022-08-17 14:47:52 GMT 38.773499 -86.250496 20,775 175 419 1984
2022-08-17 14:47:46 GMT 38.783752 -86.251633 20,625 175 419 2112
2022-08-17 14:47:41 GMT 38.794586 -86.252808 20,400 175 418 2048
2022-08-17 14:47:37 GMT 38.802128 -86.253601 19,875 175 406 768
2022-08-17 14:47:32 GMT 38.814651 -86.254974 20,100 175 416 1472
2022-08-17 14:47:29 GMT 38.822525 -86.255814 19,650 175 397 768
2022-08-17 14:47:26 GMT 38.822525 -86.255814 20,000 175 414 1344
2022-08-17 14:47:17 GMT 38.841705 -86.257843 19,800 175 401 768
2022-08-17 14:47:09 GMT 38.862228 -86.260010 19,650 175 397 768
2022-08-17 14:47:05 GMT 38.862228 -86.260010 19,575 175 391 832
2022-08-17 14:47:01 GMT 38.871212 -86.260986 19,625 175 395 768
2022-08-17 14:46:56 GMT 38.880104 -86.261963 19,550 175 391 832
2022-08-17 14:46:52 GMT 38.885880 -86.262558 19,500 175 388 832
2022-08-17 14:46:49 GMT 38.898865 -86.263916 19,400 175 384 896
2022-08-17 14:46:45 GMT 38.898865 -86.263916 19,375 175 334 960
2022-08-17 14:46:42 GMT 38.903240 -86.264404 19,350 175 379 896
2022-08-17 14:46:38 GMT 38.912502 -86.265381 19,275 175 375 960
2022-08-17 14:46:33 GMT 38.918926 -86.266052 19,200 175 371 960
2022-08-17 14:46:30 GMT 38.926468 -86.266907 19,150 175 368 960
2022-08-17 14:46:25 GMT 38.934429 -86.267761 18,825 175 353 1024
2022-08-17 14:46:19 GMT 38.943928 -86.268738 18,975 175 353 1024
2022-08-17 14:46:14 GMT 38.951885 -86.269592 18,825 175 353 1024
2022-08-17 14:46:08 GMT 38.961639 -86.270622 18,775 175 346 1024
2022-08-17 14:46:04 GMT 38.968231 -86.271339 18,725 175 345 1024
2022-08-17 14:45:58 GMT 38.978027 -86.272354 18,300 175 340 960
2022-08-17 14:45:54 GMT 38.989082 -86.273499 18,550 175 334 960
2022-08-17 14:45:49 GMT 38.989082 -86.273499 18,500 175 332 960
2022-08-17 14:45:43 GMT 39.000458 -86.274742 18,400 175 325 960
2022-08-17 14:45:36 GMT 39.012634 -86.275993 18,225 175 314 1024
2022-08-17 14:45:32 GMT 39.016022 -86.276352 18,225 175 315 1024
2022-08-17 14:45:23 GMT 39.031166 -86.278015 18,025 175 303 1024
2022-08-17 14:45:16 GMT 39.039639 -86.278931 17,925 174 298 1152
2022-08-17 14:45:13 GMT 39.042896 -86.279297 17,875 174 295 1216
2022-08-17 14:45:10 GMT 39.047646 -86.279846 17,800 174 292 1280
2022-08-17 14:45:06 GMT 39.053696 -86.280518 17,700 174 289 1408
2022-08-17 14:45:02 GMT 39.058731 -86.281128 17,550 174 283 1728
2022-08-17 14:44:55 GMT 39.067062 -86.282143 17,400 174 281 2112
2022-08-17 14:44:51 GMT 39.072735 -86.282776 16,875 175 279 512
2022-08-17 14:44:45 GMT 39.080612 -86.283691 16,975 175 281 2368
2022-08-17 14:44:41 GMT 39.085648 -86.284233 16,850 175 280 -64
2022-08-17 14:44:36 GMT 39.092789 -86.285011 16,850 175 280 -64
2022-08-17 14:44:31 GMT 39.099152 -86.285667 16,850 175 280 -64
2022-08-17 14:44:23 GMT 39.109371 -86.286743 16,850 175 280 -64
2022-08-17 14:44:20 GMT 39.112473 -86.287041 16,850 175 280 0
2022-08-17 14:44:14 GMT 39.119980 -86.287872 16,850 175 279 0
2022-08-17 14:44:08 GMT 39.128265 -86.288712 16,850 175 279 192
2022-08-17 14:44:05 GMT 39.132790 -86.289185 16,825 175 279 256
2022-08-17 14:44:00 GMT 39.139259 -86.289856 16,800 175 280 64
2022-08-17 14:43:53 GMT 39.146381 -86.290588 16,800 175 280 -384
2022-08-17 14:43:49 GMT 39.152710 -86.291275 16,825 175 278 64
2022-08-17 14:43:39 GMT 39.166260 -86.292725 16,850 175 279 0
2022-08-17 14:43:34 GMT 39.173710 -86.293579 16,850 175 279 0
2022-08-17 14:43:28 GMT 39.179626 -86.294205 16,850 175 279 0
2022-08-17 14:43:25 GMT 39.185299 -86.294800 16,850 175 279 0
2022-08-17 14:43:22 GMT 39.187363 -86.295036 16,850 175 279 0
2022-08-17 14:43:17 GMT 39.194321 -86.295753 16,850 175 279 0
2022-08-17 14:43:14 GMT 39.197029 -86.296082 16,850 175 279 0
2022-08-17 14:43:11 GMT 39.201546 -86.296570 16,850 175 279 0
2022-08-17 14:43:08 GMT 39.206341 -86.297058 16,850 175 279 0
2022-08-17 14:43:02 GMT 39.212906 -86.297729 16,825 175 279 0
2022-08-17 14:42:57 GMT 39.220028 -86.298523 16,825 202 368 0
2022-08-17 14:42:52 GMT 39.226868 -86.299217 16,850 175 279 0
2022-08-17 14:42:47 GMT 39.232910 -86.299873 16,850 175 279 0
2022-08-17 14:42:42 GMT 39.239906 -86.300659 16,850 175 279 0
2022-08-17 14:42:37 GMT 39.246841 -86.301392 16,825 175 278 64
2022-08-17 14:42:31 GMT 39.253452 -86.302063 16,825 175 278 64
2022-08-17 14:42:25 GMT 39.261646 -86.302917 16,825 175 277 64
2022-08-17 14:42:18 GMT 39.269852 -86.303757 16,825 175 276 64
2022-08-17 14:42:15 GMT 39.273933 -86.304138 16,825 175 276 0
2022-08-17 14:42:11 GMT 39.279831 -86.304771 16,825 175 276 64
2022-08-17 14:42:06 GMT 39.286194 -86.305367 16,850 175 275 128
2022-08-17 14:41:59 GMT 39.293610 -86.306084 16,825 175 275 64
2022-08-17 14:41:56 GMT 39.297909 -86.306519 16,825 175 276 0
2022-08-17 14:41:52 GMT 39.309967 -86.307678 16,875 175 276 -128
2022-08-17 14:41:47 GMT 39.309967 -86.307678 16,875 175 280 -448
2022-08-17 14:41:43 GMT 39.314247 -86.308105 16,925 175 281 -448
2022-08-17 14:41:40 GMT 39.319603 -86.308655 16,925 175 287 0
2022-08-17 14:41:36 GMT 39.324646 -86.309189 16,875 175 307 192
2022-08-17 14:41:33 GMT 39.327530 -86.309486 16,875 175 307 192
2022-08-17 14:41:26 GMT 39.338085 -86.310608 16,825 175 312 128
2022-08-17 14:41:23 GMT 39.348999 -86.311516 16,825 178 318 128
2022-08-17 14:41:18 GMT 39.348999 -86.311516 16,825 178 318 128
2022-08-17 14:41:14 GMT 39.356098 -86.311401 16,825 186 322 0
2022-08-17 14:41:11 GMT 39.360535 -86.310806 16,825 190 325 0
2022-08-17 14:41:08 GMT 39.366482 -86.309509 16,825 202 337 -64
2022-08-17 14:41:02 GMT 39.374680 -86.306625 16,825 200 332 -128
2022-08-17 14:40:52 GMT 39.389603 -86.299217 16,850 202 339 -64
2022-08-17 14:40:49 GMT 39.392689 -86.297607 16,850 202 346 -128
2022-08-17 14:40:46 GMT 39.396366 -86.295715 16,850 202 346 -128
2022-08-17 14:40:43 GMT 39.402187 -86.292725 16,875 202 351 -128
2022-08-17 14:40:37 GMT 39.410797 -86.288330 16,875 202 355 -128
2022-08-17 14:40:33 GMT 39.422195 -86.282501 16,875 202 360 -64
2022-08-17 14:40:30 GMT 39.422195 -86.282501 16,875 202 363 0
2022-08-17 14:40:26 GMT 39.426590 -86.280235 16,850 202 388 1856
2022-08-17 14:40:22 GMT 39.434029 -86.276428 16,850 202 371 64
2022-08-17 14:40:19 GMT 39.439819 -86.273483 16,825 202 381 128
2022-08-17 14:40:12 GMT 39.450897 -86.267754 16,800 202 384 256
2022-08-17 14:40:05 GMT 39.459866 -86.263184 16,775 202 388 1344
2022-08-17 14:40:01 GMT 39.467880 -86.259033 16,700 202 388 1088
2022-08-17 14:39:51 GMT 39.484909 -86.250244 16,425 202 388 1984
2022-08-17 14:39:42 GMT 39.500645 -86.242188 15,975 202 387 2432
2022-08-17 14:39:34 GMT 39.513306 -86.235657 15,800 202 386 2432
2022-08-17 14:39:30 GMT 39.524899 -86.229614 15,625 202 386 2432
2022-08-17 14:39:27 GMT 39.536316 -86.223747 14,600 202 383 2240
2022-08-17 14:39:21 GMT 39.536316 -86.223747 15,175 202 383 2176
2022-08-17 14:39:18 GMT 39.548176 -86.217590 15,000 202 382 2112
2022-08-17 14:39:08 GMT 39.556831 -86.213074 14,825 202 379 2048
2022-08-17 14:38:57 GMT 39.573917 -86.204224 14,225 202 376 2368
2022-08-17 14:38:53 GMT 39.582298 -86.199890 14,225 202 376 2368
2022-08-17 14:38:48 GMT 39.587791 -86.197083 14,075 202 374 2368
2022-08-17 14:38:45 GMT 39.601105 -86.190186 13,850 202 372 2432
2022-08-17 14:38:40 GMT 39.601105 -86.190186 13,825 202 370 2816
2022-08-17 14:38:37 GMT 39.606876 -86.187195 13,575 202 371 2752
2022-08-17 14:38:28 GMT 39.619904 -86.180397 13,200 203 370 2816
2022-08-17 14:38:19 GMT 39.635788 -86.172157 12,750 202 367 2816
2022-08-17 14:38:15 GMT 39.641327 -86.169296 12,575 202 366 3008
2022-08-17 14:38:08 GMT 39.651718 -86.163864 12,250 202 366 2944
2022-08-17 14:38:05 GMT 39.656891 -86.161171 12,100 202 366 2816
2022-08-17 14:37:58 GMT 39.669304 -86.154724 11,750 202 363 2752
2022-08-17 14:37:55 GMT 39.672729 -86.152931 11,650 202 363 2752
2022-08-17 14:37:47 GMT 39.685181 -86.146423 11,300 203 356 1664
2022-08-17 14:37:36 GMT 39.700790 -86.138184 11,025 203 352 1344
2022-08-17 14:37:33 GMT 39.705414 -86.135735 10,950 203 348 1216
2022-08-17 14:37:27 GMT 39.716034 -86.130066 10,825 203 338 1216
2022-08-17 14:37:22 GMT 39.721527 -86.127136 10,750 203 332 1216
2022-08-17 14:37:19 GMT 39.726654 -86.124397 10,675 203 330 1152
2022-08-17 14:37:16 GMT 39.730865 -86.122124 10,625 203 325 1216
2022-08-17 14:37:13 GMT 39.735546 -86.119568 10,550 203 320 1344
2022-08-17 14:37:06 GMT 39.744644 -86.114662 10,375 203 312 1728
2022-08-17 14:37:00 GMT 39.754120 -86.109802 10,100 201 305 2688
2022-08-17 14:36:56 GMT 39.759056 -86.107544 9,925 196 304 2880
2022-08-17 14:36:52 GMT 39.762592 -86.106323 9,800 192 303 2752
2022-08-17 14:36:49 GMT 39.767433 -86.105286 9,650 183 301 2496
2022-08-17 14:36:45 GMT 39.773300 -86.105110 9,475 176 298 2368
2022-08-17 14:36:42 GMT 39.778236 -86.105774 9,325 166 293 2368
2022-08-17 14:36:38 GMT 39.782379 -86.106934 9,225 164 293 2304
2022-08-17 14:36:35 GMT 39.786800 -86.108948 9,075 156 289 2176
2022-08-17 14:36:23 GMT 39.799164 -86.119080 8,600 136 276 3200
2022-08-17 14:36:17 GMT 39.804165 -86.126038 8,250 125 272 3648
2022-08-17 14:36:12 GMT 39.808773 -86.135437 7,850 115 271 3584
2022-08-17 14:36:06 GMT 39.811008 -86.142517 7,575 106 268 3456
2022-08-17 14:36:03 GMT 39.812263 -86.148560 7,350 99 267 3264
2022-08-17 14:36:00 GMT 39.812805 -86.153648 7,175 91 265 3136
2022-08-17 14:35:53 GMT 39.812778 -86.162903 6,875 83 261 3200
2022-08-17 14:35:46 GMT 39.811203 -86.173653 6,475 73 260 3584
2022-08-17 14:35:43 GMT 39.809647 -86.179382 6,225 65 259 3648
2022-08-17 14:35:37 GMT 39.806538 -86.187134 5,900 57 258 3584
2022-08-17 14:35:32 GMT 39.803467 -86.192871 5,625 50 257 3648
2022-08-17 14:35:26 GMT 39.798580 -86.199890 5,250 44 258 3712
2022-08-17 14:35:21 GMT 39.794678 -86.204880 4,975 44 257 3584
2022-08-17 14:35:16 GMT 39.789780 -86.211182 4,625 44 255 3456
2022-08-17 14:35:12 GMT 39.786438 -86.215446 4,400 44 253 3200
2022-08-17 14:35:06 GMT 39.780762 -86.222733 4,075 45 250 2752
2022-08-17 14:35:00 GMT 39.777210 -86.227356 3,925 45 246 2304
2022-08-17 14:34:51 GMT 39.769577 -86.237305 3,575 45 232 1920
2022-08-17 14:34:41 GMT 39.761765 -86.247452 3,250 45 216 1664
2022-08-17 14:34:35 GMT 39.757599 -86.252823 3,075 45 206 1472
2022-08-17 14:34:30 GMT 39.755310 -86.255814 3,000 44 201 1280
2022-08-17 14:34:23 GMT 39.750725 -86.261719 2,800 45 192 2176
2022-08-17 14:34:20 GMT 39.748581 -86.264465 2,675 45 190 2048
2022-08-17 14:34:13 GMT 39.744553 -86.269783 2,500 45 183 1472
2022-08-17 14:34:09 GMT 39.741714 -86.273666 2,375 46 175 1216
2022-08-17 14:34:01 GMT 39.736862 -86.280411 2,175 47 164 1408
2022-08-17 14:33:53 GMT 39.733292 -86.285484 1,950 47 159 2368
2022-08-17 14:33:50 GMT 39.731823 -86.287598 1,750 46 158 2880
We lost coverage of the aircraft here for a total of 133 minutes
2022-08-17 12:21:01 GMT 39.702820 -86.325378 700 44 134 -640
2022-08-17 12:20:55 GMT 39.699608 -86.329407 775 44 132 -576
2022-08-17 12:20:43 GMT 39.694702 -86.335701 900 44 131 -768
2022-08-17 12:20:33 GMT 39.689693 -86.341919 1,050 45 132 -768
2022-08-17 12:20:16 GMT 39.683121 -86.350510 1,225 45 132 -640
2022-08-17 12:20:12 GMT 39.680695 -86.353554 1,300 44 132 -640
2022-08-17 12:20:01 GMT 39.676426 -86.358948 1,400 44 132 -704
2022-08-17 12:19:57 GMT 39.674881 -86.360954 1,450 45 132 -640
2022-08-17 12:19:49 GMT 39.670746 -86.366272 1,575 44 132 -704
2022-08-17 12:19:33 GMT 39.663998 -86.374695 1,725 43 135 -640
2022-08-17 12:19:27 GMT 39.661285 -86.378151 1,775 44 136 -640
2022-08-17 12:19:23 GMT 39.659134 -86.380844 1,850 44 139 -640
2022-08-17 12:19:16 GMT 39.655663 -86.385254 1,925 43 142 -640
2022-08-17 12:19:07 GMT 39.651810 -86.389977 2,000 43 148 -640
2022-08-17 12:18:54 GMT 39.644772 -86.398254 2,200 41 156 -960
2022-08-17 12:18:46 GMT 39.640766 -86.402710 2,350 39 161 -704
2022-08-17 12:18:37 GMT 39.635368 -86.408264 2,350 33 173 -64
2022-08-17 12:18:33 GMT 39.632492 -86.410934 2,350 30 173 -64
2022-08-17 12:18:30 GMT 39.630524 -86.412544 2,350 30 173 -64
2022-08-17 12:18:27 GMT 39.628384 -86.414062 2,350 21 175 -64
2022-08-17 12:18:10 GMT 39.608139 -86.414215 2,350 0 183 0
2022-08-17 12:18:02 GMT 39.608139 -86.414215 2,350 337 200 0
2022-08-17 12:17:59 GMT 39.605484 -86.412666 2,350 335 202 0
2022-08-17 12:17:50 GMT 39.598404 -86.407959 2,325 332 213 0
2022-08-17 12:17:39 GMT 39.587791 -86.400085 2,350 329 223 -64
2022-08-17 12:17:33 GMT 39.582764 -86.395874 2,350 326 227 -64
2022-08-17 12:17:21 GMT 39.571777 -86.385376 2,350 320 232 0
2022-08-17 12:17:12 GMT 39.565353 -86.378357 2,350 318 242 -64
2022-08-17 12:17:08 GMT 39.561211 -86.373535 2,350 317 243 -64
2022-08-17 12:17:03 GMT 39.557999 -86.369568 2,625 314 265 -1216
2022-08-17 12:16:52 GMT 39.548996 -86.357674 2,425 315 254 -512
2022-08-17 12:16:42 GMT 39.541122 -86.347107 2,625 314 265 -1216
2022-08-17 12:16:31 GMT 39.531601 -86.334412 2,700 314 265 -1280
2022-08-17 12:16:21 GMT 39.523132 -86.322563 2,900 304 270 -1664
2022-08-17 12:16:07 GMT 39.509949 -86.288773 3,750 285 274 -1600
2022-08-17 12:15:59 GMT 39.507023 -86.272766 3,750 285 274 -1600
2022-08-17 12:15:48 GMT 39.507023 -86.272766 3,725 284 275 -1344
2022-08-17 12:15:40 GMT 39.504646 -86.259888 3,925 284 278 -1152
2022-08-17 12:15:37 GMT 39.503540 -86.253784 4,000 284 280 -1216
2022-08-17 12:15:30 GMT 39.501671 -86.243835 4,125 284 280 -1216
2022-08-17 12:15:19 GMT 39.498505 -86.226974 5,150 284 284 -1664
2022-08-17 12:15:13 GMT 39.496124 -86.214493 4,625 284 285 -1664
2022-08-17 12:15:05 GMT 39.494125 -86.204102 5,025 284 285 -1664
2022-08-17 12:14:55 GMT 39.490494 -86.185295 5,825 284 285 -1664
2022-08-17 12:14:52 GMT 39.489845 -86.181824 5,025 284 284 -1664
2022-08-17 12:14:48 GMT 39.488586 -86.175354 5,125 284 284 -1664
2022-08-17 12:14:44 GMT 39.487331 -86.168579 5,250 284 284 -1728
2022-08-17 12:14:39 GMT 39.485516 -86.158630 5,425 284 283 -1984
2022-08-17 12:14:28 GMT 39.482483 -86.141586 5,775 283 286 -2176
2022-08-17 12:14:17 GMT 39.479416 -86.123840 6,200 283 287 -2560
2022-08-17 12:14:08 GMT 39.476669 -86.107613 6,625 283 287 -2560
2022-08-17 12:14:02 GMT 39.474930 -86.097527 6,875 283 286 -2496
2022-08-17 12:13:57 GMT 39.473694 -86.090363 7,150 283 287 -2560
2022-08-17 12:13:53 GMT 39.472435 -86.082947 7,225 283 286 -2688
2022-08-17 12:13:46 GMT 39.470490 -86.071793 7,550 283 285 -2752
2022-08-17 12:13:40 GMT 39.468895 -86.062439 8,100 282 285 -2624
2022-08-17 12:13:37 GMT 39.467686 -86.055298 7,975 282 285 -2624
2022-08-17 12:13:28 GMT 39.465450 -86.041626 8,325 282 284 -2496
2022-08-17 12:13:25 GMT 39.464752 -86.037109 8,775 282 284 -2496
2022-08-17 12:13:22 GMT 39.463776 -86.031311 8,575 282 284 -2368
2022-08-17 12:13:16 GMT 39.461975 -86.020142 8,850 282 283 -2112
2022-08-17 12:13:08 GMT 39.460098 -86.008484 9,050 283 289 -1216
2022-08-17 12:13:05 GMT 39.459167 -86.002991 9,150 283 287 -1408
2022-08-17 12:13:01 GMT 39.456024 -85.985809 9,225 284 291 -1216
2022-08-17 12:12:55 GMT 39.456024 -85.985809 9,350 287 291 -1280
2022-08-17 12:12:51 GMT 39.454464 -85.979492 9,475 318 286 -1792
2022-08-17 12:12:45 GMT 39.451263 -85.970108 10,125 321 284 -1536
2022-08-17 12:12:39 GMT 39.446823 -85.961685 9,775 318 286 -1792
2022-08-17 12:12:34 GMT 39.442841 -85.956139 9,925 319 285 -1728
2022-08-17 12:12:26 GMT 39.434448 -85.947083 10,650 321 284 -1536
2022-08-17 12:12:24 GMT 39.421181 -85.933228 11,375 327 340 -2368
2022-08-17 12:12:13 GMT 39.418076 -85.929985 10,525 322 288 -1344
2022-08-17 12:12:02 GMT 39.409168 -85.920776 10,700 322 291 -1152
2022-08-17 12:11:56 GMT 39.402328 -85.913681 10,775 322 296 -960
2022-08-17 12:11:51 GMT 39.397751 -85.908966 10,875 322 296 -960
2022-08-17 12:11:47 GMT 39.393902 -85.904968 10,925 322 298 -896
2022-08-17 12:11:41 GMT 39.386627 -85.897499 11,025 322 301 -896
2022-08-17 12:11:38 GMT 39.376053 -85.886574 11,150 322 308 -640
2022-08-17 12:11:32 GMT 39.376053 -85.886574 11,150 322 308 -640
2022-08-17 12:11:26 GMT 39.370811 -85.881165 11,200 322 312 -576
2022-08-17 12:11:20 GMT 39.364059 -85.874153 11,250 322 318 -512
2022-08-17 12:11:10 GMT 39.352158 -85.861740 11,350 321 331 -640
2022-08-17 12:11:04 GMT 39.343460 -85.852661 12,500 322 339 -1280
2022-08-17 12:11:00 GMT 39.339890 -85.848961 12,500 336 340 -2112
2022-08-17 12:10:54 GMT 39.330776 -85.840698 11,800 336 339 -2112
2022-08-17 12:10:51 GMT 39.327667 -85.838333 11,900 330 340 -2112
2022-08-17 12:10:39 GMT 39.309036 -85.826508 12,500 336 340 -2112
2022-08-17 12:10:30 GMT 39.292046 -85.816711 12,775 336 341 -2112
2022-08-17 12:10:23 GMT 39.288136 -85.814453 12,850 337 342 -2048
2022-08-17 12:10:18 GMT 39.281288 -85.810547 13,125 336 342 -2048
2022-08-17 12:10:14 GMT 39.273193 -85.805847 13,225 336 343 -1984
2022-08-17 12:10:10 GMT 39.269093 -85.803528 13,375 336 345 -1984
2022-08-17 12:10:07 GMT 39.264904 -85.801086 13,400 336 345 -1984
2022-08-17 12:10:02 GMT 39.257858 -85.797073 13,550 336 346 -2048
2022-08-17 12:09:59 GMT 39.252892 -85.794189 13,850 336 347 -2112
2022-08-17 12:09:55 GMT 39.246330 -85.790405 13,850 336 347 -2112
2022-08-17 12:09:51 GMT 39.239548 -85.786507 14,000 336 348 -2112
2022-08-17 12:09:48 GMT 39.237671 -85.785400 14,075 336 348 -2112
2022-08-17 12:09:45 GMT 39.230595 -85.781372 14,225 337 349 -2112
2022-08-17 12:09:42 GMT 39.227615 -85.779663 14,325 337 349 -2112
2022-08-17 12:09:39 GMT 39.222446 -85.776672 14,400 337 350 -2112
2022-08-17 12:09:35 GMT 39.218445 -85.774414 14,500 337 350 -2112
2022-08-17 12:09:31 GMT 39.210575 -85.769958 14,700 337 351 -2176
2022-08-17 12:09:28 GMT 39.202522 -85.765442 14,800 337 351 -2176
2022-08-17 12:09:25 GMT 39.202522 -85.765442 14,900 337 352 -2176
2022-08-17 12:09:19 GMT 39.187813 -85.757141 15,250 337 355 -2176
2022-08-17 12:09:16 GMT 39.187813 -85.757141 15,250 337 355 -2176
2022-08-17 12:09:08 GMT 39.177013 -85.750977 15,675 337 356 -2112
2022-08-17 12:09:02 GMT 39.167770 -85.745842 15,625 337 357 -2112
2022-08-17 12:08:58 GMT 39.162094 -85.742798 15,875 340 358 -2048
2022-08-17 12:08:55 GMT 39.155506 -85.739807 16,025 344 360 -2048
2022-08-17 12:08:48 GMT 39.145172 -85.736145 16,200 348 363 -1984
2022-08-17 12:08:44 GMT 39.139446 -85.734619 16,325 351 364 -1984
2022-08-17 12:08:37 GMT 39.127533 -85.732292 16,575 352 366 -2112
2022-08-17 12:08:34 GMT 39.122314 -85.731277 16,675 352 367 -2560
2022-08-17 12:08:27 GMT 39.110229 -85.729065 17,075 352 365 -3264
2022-08-17 12:08:24 GMT 39.104691 -85.727989 17,200 352 365 -2880
2022-08-17 12:08:20 GMT 39.099518 -85.727036 17,325 352 365 -2304
2022-08-17 12:08:16 GMT 39.091778 -85.725586 17,500 352 366 -2432
2022-08-17 12:08:13 GMT 39.087250 -85.724770 17,625 352 366 -2432
2022-08-17 12:08:08 GMT 39.079674 -85.723328 17,800 352 367 -2176
2022-08-17 12:08:05 GMT 39.069523 -85.721436 17,950 352 368 -1792
2022-08-17 12:08:02 GMT 39.069523 -85.721436 18,000 352 368 -1728
2022-08-17 12:07:58 GMT 39.061935 -85.719971 18,100 352 369 -1344
2022-08-17 12:07:53 GMT 39.051136 -85.717773 18,225 351 369 -960
2022-08-17 12:07:45 GMT 39.038799 -85.714355 18,350 344 368 -1024
2022-08-17 12:07:42 GMT 39.027489 -85.709351 18,450 340 369 -1024
2022-08-17 12:07:37 GMT 39.027489 -85.709351 18,475 337 370 -1088
2022-08-17 12:07:35 GMT 39.023849 -85.707329 18,525 336 369 -1088
2022-08-17 12:07:30 GMT 39.015289 -85.701836 18,600 332 370 -1024
2022-08-17 12:07:25 GMT 39.006546 -85.695808 18,700 332 370 -1024
2022-08-17 12:07:21 GMT 39.002769 -85.693176 18,750 332 370 -960
2022-08-17 12:07:14 GMT 38.991920 -85.685669 18,900 332 371 -960
2022-08-17 12:07:10 GMT 38.987091 -85.682312 18,925 332 371 -960
2022-08-17 12:07:04 GMT 38.977066 -85.675385 19,050 332 371 -960
2022-08-17 12:07:01 GMT 38.971020 -85.671143 19,100 332 372 -960
2022-08-17 12:06:55 GMT 38.964176 -85.666443 19,175 332 372 -960
2022-08-17 12:06:53 GMT 38.959007 -85.662903 19,225 332 372 -960
2022-08-17 12:06:50 GMT 38.955826 -85.660698 19,250 332 372 -960
2022-08-17 12:06:44 GMT 38.945324 -85.653442 19,375 332 373 -1024
2022-08-17 12:06:40 GMT 38.940018 -85.649780 19,425 332 374 -1024
2022-08-17 12:06:33 GMT 38.928864 -85.642067 19,550 332 374 -1024
2022-08-17 12:06:30 GMT 38.924423 -85.639023 19,600 332 375 -1024
2022-08-17 12:06:22 GMT 38.912922 -85.631042 19,725 332 376 -1024
2022-08-17 12:06:18 GMT 38.907715 -85.627441 19,775 332 376 -1024
2022-08-17 12:06:15 GMT 38.901611 -85.623169 19,850 332 377 -1024
2022-08-17 12:06:12 GMT 38.895931 -85.619202 19,900 332 377 -1024
2022-08-17 12:06:09 GMT 38.892067 -85.616516 19,950 332 377 -1024
2022-08-17 12:06:04 GMT 38.886246 -85.612457 20,025 332 374 -1024
2022-08-17 12:06:01 GMT 38.881638 -85.609253 20,200 332 374 -1024
2022-08-17 12:05:58 GMT 38.876312 -85.605591 20,125 332 376 -1024
2022-08-17 12:05:52 GMT 38.860107 -85.594421 20,275 332 374 -1024
2022-08-17 12:05:48 GMT 38.860107 -85.594421 20,325 332 374 -1024
2022-08-17 12:05:45 GMT 38.854874 -85.590881 20,375 332 374 -1024
2022-08-17 12:05:41 GMT 38.850449 -85.587830 20,450 332 374 -1024
2022-08-17 12:05:38 GMT 38.844490 -85.583740 20,500 332 374 -1024
2022-08-17 12:05:34 GMT 38.840240 -85.580811 20,525 332 374 -1024
2022-08-17 12:05:30 GMT 38.832413 -85.575493 20,625 332 374 -960
2022-08-17 12:05:27 GMT 38.828751 -85.572990 20,650 332 374 -960
2022-08-17 12:05:23 GMT 38.820786 -85.567497 20,750 332 378 -960
2022-08-17 12:05:20 GMT 38.817581 -85.565285 20,775 332 376 -960
2022-08-17 12:05:17 GMT 38.812820 -85.562004 20,825 332 377 -960
2022-08-17 12:05:13 GMT 38.808365 -85.558899 20,900 332 377 -960
2022-08-17 12:05:09 GMT 38.800079 -85.553162 20,950 332 379 -960
2022-08-17 12:05:05 GMT 38.794510 -85.549286 21,050 332 382 -960
2022-08-17 12:05:00 GMT 38.787415 -85.544327 21,175 332 382 -960
2022-08-17 12:04:55 GMT 38.779816 -85.538956 21,200 332 383 -960
2022-08-17 12:04:49 GMT 38.769680 -85.531860 21,375 332 387 -960
2022-08-17 12:04:44 GMT 38.761322 -85.526054 21,400 332 398 -1024
2022-08-17 12:04:38 GMT 38.752270 -85.519775 21,475 332 392 -1024
2022-08-17 12:04:35 GMT 38.748276 -85.516983 21,525 332 397 -1024
2022-08-17 12:04:32 GMT 38.743427 -85.513611 21,800 332 420 -1024
2022-08-17 12:04:29 GMT 38.736877 -85.509102 21,625 332 404 -1024
2022-08-17 12:04:24 GMT 38.730789 -85.504921 21,675 332 407 -1024
2022-08-17 12:04:18 GMT 38.720764 -85.497993 21,750 332 413 -1024
2022-08-17 12:04:16 GMT 38.715679 -85.494507 21,800 332 417 -1024
2022-08-17 12:04:12 GMT 38.710419 -85.490906 21,850 332 420 -1024
2022-08-17 12:04:09 GMT 38.704414 -85.486755 21,900 332 423 -832
2022-08-17 12:04:04 GMT 38.696091 -85.481033 21,975 332 426 -384
2022-08-17 12:03:58 GMT 38.684212 -85.472534 22,000 329 427 0
2022-08-17 12:03:53 GMT 38.675491 -85.465569 22,000 326 426 0
2022-08-17 12:03:48 GMT 38.666519 -85.457764 22,000 324 427 0
2022-08-17 12:03:43 GMT 38.660934 -85.452515 22,000 323 426 0
2022-08-17 12:03:40 GMT 38.656746 -85.448303 22,000 319 425 0
2022-08-17 12:03:36 GMT 38.645416 -85.436195 22,000 319 425 0
2022-08-17 12:03:33 GMT 38.645416 -85.436195 22,000 319 426 0
2022-08-17 12:03:29 GMT 38.638916 -85.428894 22,000 319 425 0
2022-08-17 12:03:26 GMT 38.635796 -85.425354 22,000 319 425 0
2022-08-17 12:03:19 GMT 38.625275 -85.413574 22,000 319 425 0
2022-08-17 12:03:16 GMT 38.619968 -85.407593 22,000 319 425 0
2022-08-17 12:03:10 GMT 38.612000 -85.398697 22,000 319 425 0
2022-08-17 12:03:06 GMT 38.604721 -85.390579 22,000 319 425 0
2022-08-17 12:02:59 GMT 38.595886 -85.380608 22,000 319 425 0
2022-08-17 12:02:55 GMT 38.590130 -85.374084 22,000 319 425 -64
2022-08-17 12:02:52 GMT 38.584259 -85.367409 22,000 319 425 0
2022-08-17 12:02:49 GMT 38.581421 -85.364250 22,000 319 425 0
2022-08-17 12:02:46 GMT 38.574234 -85.356064 22,000 319 425 0
2022-08-17 12:02:38 GMT 38.565502 -85.346191 22,000 319 425 0
2022-08-17 12:02:35 GMT 38.558613 -85.338379 22,000 319 426 0
2022-08-17 12:02:31 GMT 38.552994 -85.332062 22,000 319 425 0
2022-08-17 12:02:28 GMT 38.549881 -85.328545 22,000 319 425 0
2022-08-17 12:02:25 GMT 38.546036 -85.324242 22,000 319 425 0
2022-08-17 12:02:23 GMT 38.542507 -85.320251 22,000 319 425 0
2022-08-17 12:02:18 GMT 38.535095 -85.311943 22,000 319 425 64
2022-08-17 12:02:13 GMT 38.527283 -85.303162 22,000 319 425 0
2022-08-17 12:02:05 GMT 38.516064 -85.290588 22,000 319 425 -64
2022-08-17 12:02:03 GMT 38.512062 -85.286133 22,000 319 425 -64
2022-08-17 12:01:57 GMT 38.504654 -85.277847 22,000 319 425 -64
2022-08-17 12:01:54 GMT 38.500237 -85.272888 22,025 319 424 0
2022-08-17 12:01:52 GMT 38.497284 -85.269547 22,000 319 424 -64
2022-08-17 12:01:47 GMT 38.489346 -85.260620 22,000 319 423 0
2022-08-17 12:01:43 GMT 38.482037 -85.252380 22,000 319 422 0
2022-08-17 12:01:36 GMT 38.474121 -85.243454 22,000 319 423 0
2022-08-17 12:01:32 GMT 38.466202 -85.234505 22,000 319 424 0
2022-08-17 12:01:26 GMT 38.458694 -85.226082 22,000 319 425 0
2022-08-17 12:01:23 GMT 38.454288 -85.221130 22,000 319 425 0
2022-08-17 12:01:20 GMT 38.450706 -85.217163 22,000 319 425 0
2022-08-17 12:01:17 GMT 38.445538 -85.211365 22,000 319 425 0
2022-08-17 12:01:13 GMT 38.439205 -85.204224 22,000 319 424 0
2022-08-17 12:01:11 GMT 38.434753 -85.199272 22,000 319 424 0
2022-08-17 12:01:08 GMT 38.430920 -85.195007 22,000 319 424 64
2022-08-17 12:01:05 GMT 38.427521 -85.191223 22,000 319 424 64
2022-08-17 12:01:00 GMT 38.418823 -85.181480 22,000 319 424 0
2022-08-17 12:00:57 GMT 38.416023 -85.178406 22,000 319 424 0
2022-08-17 12:00:54 GMT 38.412300 -85.174255 22,000 319 424 0
2022-08-17 12:00:48 GMT 38.403175 -85.164047 22,000 319 424 0
2022-08-17 12:00:45 GMT 38.397263 -85.157486 22,000 319 423 0
2022-08-17 12:00:41 GMT 38.390327 -85.149712 22,000 319 423 0
2022-08-17 12:00:37 GMT 38.385040 -85.143753 22,000 319 422 0
2022-08-17 12:00:33 GMT 38.380508 -85.138664 22,000 319 422 0
2022-08-17 12:00:28 GMT 38.371704 -85.128815 22,000 319 422 0
2022-08-17 12:00:23 GMT 38.365978 -85.122429 22,000 319 422 0
2022-08-17 12:00:19 GMT 38.357895 -85.113365 22,000 319 422 0
2022-08-17 12:00:16 GMT 38.354668 -85.109772 22,000 319 422 0
2022-08-17 12:00:10 GMT 38.338806 -85.092094 22,000 319 422 0
2022-08-17 12:00:04 GMT 38.338806 -85.092094 22,000 319 422 0
2022-08-17 12:00:00 GMT 38.332462 -85.085052 22,000 319 422 0
2022-08-17 11:59:58 GMT 38.328972 -85.081108 22,000 319 422 0
2022-08-17 11:59:55 GMT 38.323246 -85.074722 22,000 319 422 0
2022-08-17 11:59:52 GMT 38.321011 -85.072273 22,000 319 422 0
2022-08-17 11:59:48 GMT 38.314400 -85.064873 22,000 319 422 0
2022-08-17 11:59:45 GMT 38.308067 -85.057884 22,000 319 422 0
2022-08-17 11:59:42 GMT 38.305893 -85.055389 22,000 319 422 0
2022-08-17 11:59:37 GMT 38.298523 -85.047211 22,000 319 422 0
2022-08-17 11:59:32 GMT 38.290890 -85.038719 22,000 319 422 0
2022-08-17 11:59:29 GMT 38.286327 -85.033646 22,000 319 421 0
2022-08-17 11:59:26 GMT 38.281769 -85.028625 22,000 319 421 0
2022-08-17 11:59:21 GMT 38.274879 -85.020927 22,000 319 421 0
2022-08-17 11:59:16 GMT 38.266640 -85.011787 22,000 319 421 0
2022-08-17 11:59:13 GMT 38.263100 -85.007851 22,000 319 421 0
2022-08-17 11:59:11 GMT 38.260162 -85.004608 22,000 319 421 0
2022-08-17 11:59:07 GMT 38.246521 -84.989418 22,000 319 422 0
2022-08-17 11:59:02 GMT 38.246521 -84.989418 22,000 319 422 0
2022-08-17 11:59:00 GMT 38.244003 -84.986610 22,000 319 422 0
2022-08-17 11:58:56 GMT 38.237961 -84.979950 22,000 319 422 0
2022-08-17 11:58:53 GMT 38.233109 -84.974571 22,000 319 422 0
2022-08-17 11:58:50 GMT 38.229301 -84.970352 22,000 319 422 0
2022-08-17 11:58:47 GMT 38.223251 -84.963661 22,000 319 422 0
2022-08-17 11:58:41 GMT 38.217407 -84.957100 22,000 319 422 0
2022-08-17 11:58:32 GMT 38.201935 -84.940033 22,000 319 422 0
2022-08-17 11:58:29 GMT 38.192551 -84.929573 22,000 319 422 0
2022-08-17 11:58:25 GMT 38.192551 -84.929573 22,000 319 422 0
2022-08-17 11:58:22 GMT 38.187683 -84.924194 22,000 319 421 0
2022-08-17 11:58:14 GMT 38.174515 -84.909470 22,000 319 422 0
2022-08-17 11:58:11 GMT 38.172321 -84.906998 22,000 319 421 0
2022-08-17 11:58:08 GMT 38.167923 -84.902107 22,000 319 422 0
2022-08-17 11:58:01 GMT 38.157520 -84.890518 22,000 319 422 0
2022-08-17 11:57:50 GMT 38.129169 -84.858994 22,000 319 421 0
2022-08-17 11:57:43 GMT 38.129169 -84.858994 22,000 319 421 0
2022-08-17 11:57:40 GMT 38.126980 -84.856606 22,000 319 421 0
2022-08-17 11:57:38 GMT 38.122879 -84.852028 22,000 319 421 0
2022-08-17 11:57:29 GMT 38.111069 -84.839058 22,000 320 421 0
2022-08-17 11:57:26 GMT 38.104588 -84.831886 22,000 320 422 0
2022-08-17 11:57:19 GMT 38.096191 -84.822693 22,000 320 422 0
2022-08-17 11:57:13 GMT 38.086029 -84.811470 22,000 319 421 0
2022-08-17 11:57:08 GMT 38.079544 -84.804359 22,000 319 422 0
2022-08-17 11:57:04 GMT 38.072754 -84.796860 22,000 319 422 0
2022-08-17 11:57:00 GMT 38.065887 -84.789207 22,000 319 421 0
2022-08-17 11:56:57 GMT 38.060120 -84.782837 22,000 319 421 0
2022-08-17 11:56:55 GMT 38.060120 -84.782837 22,000 319 421 0
2022-08-17 11:56:52 GMT 38.054546 -84.776657 22,000 319 421 0
2022-08-17 11:56:46 GMT 38.045288 -84.766418 22,000 319 422 0
2022-08-17 11:56:29 GMT 38.020706 -84.739304 22,000 320 422 0
2022-08-17 11:56:25 GMT 38.016281 -84.734444 22,000 320 421 0
2022-08-17 11:56:17 GMT 38.002121 -84.718964 22,000 320 421 0
2022-08-17 11:56:05 GMT 37.987198 -84.702606 22,000 319 421 0
2022-08-17 11:55:57 GMT 37.974564 -84.688698 22,000 320 422 0
2022-08-17 11:55:53 GMT 37.967030 -84.680405 22,000 320 422 0
2022-08-17 11:55:42 GMT 37.952084 -84.664047 22,000 319 423 0
2022-08-17 11:55:33 GMT 37.938675 -84.649246 22,000 320 422 0
2022-08-17 11:55:21 GMT 37.922104 -84.631088 22,000 320 423 64
2022-08-17 11:55:09 GMT 37.902969 -84.610153 22,000 319 424 0
2022-08-17 11:55:02 GMT 37.892452 -84.598610 22,000 320 424 0
2022-08-17 11:54:50 GMT 37.875786 -84.580818 22,000 322 424 0
2022-08-17 11:54:40 GMT 37.858887 -84.564278 22,000 323 422 0
2022-08-17 11:54:29 GMT 37.841618 -84.547737 22,000 323 421 0
2022-08-17 11:54:19 GMT 37.809402 -84.516884 22,000 323 422 0
2022-08-17 11:54:07 GMT 37.809402 -84.516884 22,000 323 422 0
2022-08-17 11:54:04 GMT 37.803768 -84.511490 22,000 323 422 0
2022-08-17 11:53:57 GMT 37.791321 -84.499588 22,000 323 421 0
2022-08-17 11:53:47 GMT 37.758938 -84.468559 22,000 323 422 0
2022-08-17 11:53:36 GMT 37.758938 -84.468559 22,000 323 422 0
2022-08-17 11:53:26 GMT 37.744446 -84.454712 22,000 323 421 0
2022-08-17 11:53:18 GMT 37.730438 -84.441330 22,000 323 421 0
2022-08-17 11:53:06 GMT 37.713318 -84.424965 22,000 323 421 0
2022-08-17 11:53:02 GMT 37.705544 -84.417511 22,000 323 421 0
2022-08-17 11:52:55 GMT 37.696373 -84.408798 22,000 323 421 0
2022-08-17 11:52:52 GMT 37.692139 -84.404732 22,000 323 421 0
2022-08-17 11:52:44 GMT 37.678917 -84.392197 22,000 323 421 0
2022-08-17 11:52:34 GMT 37.663971 -84.377922 22,000 323 421 0
2022-08-17 11:52:29 GMT 37.654816 -84.369217 22,000 323 421 0
2022-08-17 11:52:25 GMT 37.648563 -84.363235 22,000 323 421 0
2022-08-17 11:52:19 GMT 37.638927 -84.354042 22,000 323 421 0
2022-08-17 11:52:13 GMT 37.630829 -84.346397 22,000 323 421 0
2022-08-17 11:52:10 GMT 37.626171 -84.341919 22,000 323 421 0
2022-08-17 11:52:04 GMT 37.616364 -84.332634 22,000 323 421 0
2022-08-17 11:51:59 GMT 37.609818 -84.326378 22,000 323 422 0
2022-08-17 11:51:53 GMT 37.599358 -84.316483 22,000 323 422 0
2022-08-17 11:51:42 GMT 37.583485 -84.301437 22,000 323 422 0
2022-08-17 11:51:31 GMT 37.565887 -84.284782 22,000 323 422 0
2022-08-17 11:51:21 GMT 37.550262 -84.269989 22,000 323 421 0
2022-08-17 11:51:12 GMT 37.534744 -84.255226 22,000 323 421 0
2022-08-17 11:50:49 GMT 37.500961 -84.223236 22,000 323 421 0
2022-08-17 11:50:39 GMT 37.482979 -84.206207 22,000 324 420 0
2022-08-17 11:50:31 GMT 37.471939 -84.195770 22,000 324 420 0
2022-08-17 11:50:21 GMT 37.455597 -84.180283 22,000 323 421 0
2022-08-17 11:50:10 GMT 37.439255 -84.164856 22,000 323 421 0
2022-08-17 11:49:59 GMT 37.423065 -84.149483 22,000 323 422 0
2022-08-17 11:49:49 GMT 37.406845 -84.134178 22,000 324 421 0
2022-08-17 11:49:39 GMT 37.390663 -84.118912 22,000 324 420 0
2022-08-17 11:49:29 GMT 37.373428 -84.102623 22,000 324 420 0
2022-08-17 11:49:17 GMT 37.358032 -84.088104 22,000 324 420 0
2022-08-17 11:49:08 GMT 37.341980 -84.072990 22,000 323 422 0
2022-08-17 11:49:02 GMT 37.334335 -84.065804 22,000 323 422 0
2022-08-17 11:48:57 GMT 37.325912 -84.057854 22,000 323 422 0
2022-08-17 11:48:46 GMT 37.309429 -84.042244 22,000 324 420 0
2022-08-17 11:48:37 GMT 37.293228 -84.027000 22,000 324 420 0
2022-08-17 11:48:29 GMT 37.282803 -84.017227 22,000 324 420 0
2022-08-17 11:48:26 GMT 37.277206 -84.011986 22,000 324 420 0
2022-08-17 11:48:20 GMT 37.266788 -84.002182 22,000 324 420 0
2022-08-17 11:48:16 GMT 37.261063 -83.996811 22,000 324 420 0
2022-08-17 11:48:08 GMT 37.250336 -83.986740 22,000 324 420 0
2022-08-17 11:48:05 GMT 37.244724 -83.981461 22,000 324 420 0
2022-08-17 11:47:58 GMT 37.233353 -83.970787 22,000 324 420 0
2022-08-17 11:47:54 GMT 37.228382 -83.966118 22,000 324 420 0
2022-08-17 11:47:45 GMT 37.212044 -83.950775 22,000 324 420 0
2022-08-17 11:47:38 GMT 37.201584 -83.940979 22,000 324 420 64
2022-08-17 11:47:33 GMT 37.196136 -83.935837 22,000 324 420 0
2022-08-17 11:47:24 GMT 37.179474 -83.920181 22,000 324 420 0
2022-08-17 11:47:16 GMT 37.167664 -83.909073 22,000 323 421 0
2022-08-17 11:47:11 GMT 37.160789 -83.902588 22,000 323 421 0
2022-08-17 11:47:05 GMT 37.151321 -83.893646 22,000 323 421 -64
2022-08-17 11:47:02 GMT 37.146973 -83.889496 22,000 323 421 -64
2022-08-17 11:46:56 GMT 37.136395 -83.879539 22,000 323 421 -64
2022-08-17 11:46:53 GMT 37.131138 -83.874527 22,000 323 421 0
2022-08-17 11:46:45 GMT 37.120377 -83.864426 22,000 324 420 64
2022-08-17 11:46:41 GMT 37.115250 -83.859581 22,000 324 420 64
2022-08-17 11:46:35 GMT 37.103439 -83.848419 22,000 322 421 64
2022-08-17 11:46:31 GMT 37.097477 -83.842522 22,000 319 421 0
2022-08-17 11:46:23 GMT 37.086777 -83.830826 22,000 317 420 0
2022-08-17 11:46:20 GMT 37.083141 -83.826401 22,000 315 421 0
2022-08-17 11:46:14 GMT 37.073223 -83.813385 22,000 312 420 -64
2022-08-17 11:46:10 GMT 37.070114 -83.808968 22,000 311 420 -64
2022-08-17 11:46:00 GMT 37.056885 -83.788605 22,000 309 419 0
2022-08-17 11:45:50 GMT 37.044594 -83.769501 22,000 309 419 0
2022-08-17 11:45:42 GMT 37.035187 -83.754974 22,000 309 421 0
2022-08-17 11:45:39 GMT 37.029556 -83.746269 22,000 309 421 0
2022-08-17 11:45:34 GMT 37.026031 -83.740776 22,000 309 420 0
2022-08-17 11:45:31 GMT 37.021877 -83.734329 22,000 309 421 0
2022-08-17 11:45:27 GMT 37.016510 -83.726044 22,000 309 420 0
2022-08-17 11:45:18 GMT 37.005539 -83.709015 22,000 309 420 0
2022-08-17 11:45:08 GMT 36.993896 -83.691040 22,000 309 421 0
2022-08-17 11:44:58 GMT 36.981354 -83.671524 22,000 309 420 0
2022-08-17 11:44:54 GMT 36.975494 -83.662468 22,000 309 420 0
2022-08-17 11:44:49 GMT 36.970505 -83.654694 22,000 309 420 0
2022-08-17 11:44:45 GMT 36.965874 -83.647514 22,000 309 420 0
2022-08-17 11:44:37 GMT 36.955994 -83.632195 22,000 309 420 0
2022-08-17 11:44:30 GMT 36.948277 -83.620285 22,000 309 420 0
2022-08-17 11:44:26 GMT 36.943176 -83.612389 22,000 309 420 0
2022-08-17 11:44:23 GMT 36.938503 -83.605179 22,000 309 420 0
2022-08-17 11:44:16 GMT 36.930817 -83.593277 22,000 309 421 0
2022-08-17 11:44:07 GMT 36.919189 -83.575333 22,000 309 421 0
2022-08-17 11:44:03 GMT 36.914658 -83.568382 22,000 309 421 0
2022-08-17 11:43:55 GMT 36.897308 -83.541557 22,000 309 421 0
2022-08-17 11:43:44 GMT 36.890320 -83.530785 22,000 310 420 0
2022-08-17 11:43:36 GMT 36.880264 -83.515320 22,000 310 420 0
2022-08-17 11:43:33 GMT 36.877808 -83.511581 22,000 310 420 0
2022-08-17 11:43:24 GMT 36.866531 -83.494240 22,000 310 420 0
2022-08-17 11:43:21 GMT 36.862839 -83.488556 22,000 310 420 0
2022-08-17 11:43:15 GMT 36.854507 -83.475754 22,000 310 420 0
2022-08-17 11:43:12 GMT 36.851440 -83.471024 22,000 310 420 0
2022-08-17 11:43:02 GMT 36.839764 -83.453140 22,000 310 420 0
2022-08-17 11:42:53 GMT 36.828506 -83.435783 22,000 310 420 0
2022-08-17 11:42:42 GMT 36.813995 -83.413528 22,000 310 421 0
2022-08-17 11:42:31 GMT 36.802059 -83.395287 22,000 310 421 0
2022-08-17 11:42:22 GMT 36.790741 -83.377937 22,000 310 421 0
2022-08-17 11:42:10 GMT 36.774765 -83.353500 22,000 310 420 0
2022-08-17 11:42:00 GMT 36.763733 -83.336563 22,000 310 420 0
2022-08-17 11:41:49 GMT 36.748615 -83.313477 22,000 310 420 0
2022-08-17 11:41:40 GMT 36.725647 -83.278374 22,000 310 420 0
2022-08-17 11:41:30 GMT 36.725647 -83.278374 22,000 310 420 0
2022-08-17 11:41:19 GMT 36.713097 -83.259247 22,000 310 420 0
2022-08-17 11:41:09 GMT 36.694839 -83.231277 22,000 310 420 0
2022-08-17 11:40:59 GMT 36.687866 -83.220558 22,000 310 420 0
2022-08-17 11:40:56 GMT 36.685398 -83.216820 22,000 310 420 0
2022-08-17 11:40:52 GMT 36.679718 -83.208168 22,000 310 420 0
2022-08-17 11:40:48 GMT 36.673946 -83.199402 22,000 310 420 0
2022-08-17 11:40:42 GMT 36.667709 -83.189819 22,000 310 420 0
2022-08-17 11:40:38 GMT 36.662384 -83.181786 22,000 310 420 0
2022-08-17 11:40:34 GMT 36.657349 -83.174110 22,000 310 420 0
2022-08-17 11:40:29 GMT 36.652084 -83.166100 22,000 310 420 0
2022-08-17 11:40:26 GMT 36.647411 -83.158966 22,000 310 419 0
2022-08-17 11:40:23 GMT 36.643707 -83.153343 22,000 310 419 0
2022-08-17 11:40:19 GMT 36.639633 -83.147224 22,000 310 419 0
2022-08-17 11:40:16 GMT 36.636063 -83.141785 22,000 310 419 0
2022-08-17 11:40:12 GMT 36.630753 -83.133720 22,000 310 420 0
2022-08-17 11:40:08 GMT 36.625347 -83.125542 22,000 310 420 0
2022-08-17 11:40:04 GMT 36.619949 -83.117294 22,000 310 420 0
2022-08-17 11:40:01 GMT 36.617569 -83.113747 22,000 310 420 0
2022-08-17 11:39:56 GMT 36.611572 -83.104530 22,000 310 420 0
2022-08-17 11:39:52 GMT 36.605282 -83.094978 22,000 310 420 0
2022-08-17 11:39:49 GMT 36.601231 -83.088783 22,000 310 420 0
2022-08-17 11:39:45 GMT 36.596668 -83.081886 22,000 310 420 0
2022-08-17 11:39:40 GMT 36.592106 -83.074928 22,000 310 420 0
2022-08-17 11:39:37 GMT 36.587078 -83.067276 22,000 310 420 0
2022-08-17 11:39:28 GMT 36.576466 -83.051147 22,000 310 420 0
2022-08-17 11:39:24 GMT 36.570648 -83.042397 22,000 310 420 0
2022-08-17 11:39:21 GMT 36.566849 -83.036613 22,000 310 420 0
2022-08-17 11:39:18 GMT 36.563618 -83.031746 22,000 310 420 0
2022-08-17 11:39:13 GMT 36.557465 -83.022369 22,000 310 419 0
2022-08-17 11:39:10 GMT 36.553894 -83.016991 22,000 310 419 0
2022-08-17 11:39:06 GMT 36.546719 -83.006149 22,000 310 419 0
2022-08-17 11:39:03 GMT 36.544281 -83.002396 22,000 310 419 0
2022-08-17 11:39:00 GMT 36.541458 -82.998085 22,000 310 419 0
2022-08-17 11:38:55 GMT 36.535267 -82.988792 22,000 310 419 0
2022-08-17 11:38:52 GMT 36.532196 -82.984138 22,000 310 419 0
2022-08-17 11:38:49 GMT 36.527771 -82.977402 22,000 310 419 0
2022-08-17 11:38:44 GMT 36.521210 -82.967491 22,000 310 419 0
2022-08-17 11:38:41 GMT 36.518005 -82.962624 22,000 310 419 0
2022-08-17 11:38:36 GMT 36.513107 -82.955193 22,000 310 419 0
2022-08-17 11:38:33 GMT 36.509399 -82.949577 22,000 310 420 0
2022-08-17 11:38:29 GMT 36.503098 -82.940056 22,000 310 419 0
2022-08-17 11:38:24 GMT 36.497177 -82.931099 22,000 310 420 0
2022-08-17 11:38:21 GMT 36.492996 -82.924744 22,000 310 420 0
2022-08-17 11:38:17 GMT 36.489761 -82.919884 22,000 310 420 0
2022-08-17 11:38:13 GMT 36.484104 -82.911308 22,000 310 419 0
2022-08-17 11:38:10 GMT 36.480057 -82.905174 22,000 310 419 0
2022-08-17 11:38:06 GMT 36.474609 -82.896935 22,000 310 420 0
2022-08-17 11:38:02 GMT 36.467697 -82.886520 22,000 310 420 0
2022-08-17 11:37:58 GMT 36.464355 -82.881493 22,000 310 420 0
2022-08-17 11:37:53 GMT 36.459045 -82.873482 22,000 310 419 0
2022-08-17 11:37:49 GMT 36.451519 -82.862099 22,000 310 419 0
2022-08-17 11:37:46 GMT 36.451519 -82.862099 22,000 310 419 0
2022-08-17 11:37:42 GMT 36.446091 -82.853912 22,000 310 419 0
2022-08-17 11:37:39 GMT 36.441330 -82.846642 22,000 310 419 0
2022-08-17 11:37:35 GMT 36.436390 -82.839195 22,000 310 419 0
2022-08-17 11:37:29 GMT 36.429966 -82.829552 22,000 310 419 0
2022-08-17 11:37:25 GMT 36.425262 -82.822433 22,000 310 419 0
2022-08-17 11:37:22 GMT 36.419952 -82.814484 22,000 310 420 0
2022-08-17 11:37:18 GMT 36.407619 -82.795891 22,000 310 419 0
2022-08-17 11:37:11 GMT 36.407619 -82.795891 22,000 310 419 0
2022-08-17 11:37:06 GMT 36.402191 -82.787704 22,000 310 419 0
2022-08-17 11:37:03 GMT 36.396378 -82.778954 22,000 310 420 0
2022-08-17 11:36:57 GMT 36.388859 -82.767609 22,000 310 420 0
2022-08-17 11:36:53 GMT 36.385742 -82.762993 22,000 310 419 0
2022-08-17 11:36:50 GMT 36.381088 -82.755890 22,000 310 419 0
2022-08-17 11:36:47 GMT 36.378712 -82.752357 22,000 310 420 0
2022-08-17 11:36:43 GMT 36.373173 -82.743996 22,000 310 420 0
2022-08-17 11:36:40 GMT 36.369690 -82.738785 22,000 310 420 0
2022-08-17 11:36:35 GMT 36.361542 -82.726479 22,000 310 420 0
2022-08-17 11:36:31 GMT 36.359070 -82.722755 22,000 310 420 0
2022-08-17 11:36:27 GMT 36.353386 -82.714256 22,000 310 419 0
2022-08-17 11:36:23 GMT 36.347290 -82.705139 22,000 310 419 0
2022-08-17 11:36:15 GMT 36.337418 -82.690254 22,000 310 419 0
2022-08-17 11:36:11 GMT 36.334301 -82.685616 22,000 310 419 0
2022-08-17 11:36:07 GMT 36.327759 -82.675781 22,000 310 419 0
2022-08-17 11:36:02 GMT 36.322060 -82.667267 22,000 310 419 0
2022-08-17 11:35:56 GMT 36.314529 -82.655983 22,000 310 419 0
2022-08-17 11:35:52 GMT 36.309303 -82.648163 22,000 310 419 0
2022-08-17 11:35:46 GMT 36.302132 -82.637405 22,000 310 419 0
2022-08-17 11:35:42 GMT 36.298325 -82.631660 22,000 310 419 0
2022-08-17 11:35:39 GMT 36.292961 -82.623734 22,000 310 419 0
2022-08-17 11:35:36 GMT 36.289398 -82.618332 22,000 310 419 0
2022-08-17 11:35:31 GMT 36.283607 -82.609650 22,000 310 419 0
2022-08-17 11:35:28 GMT 36.280472 -82.605057 22,000 310 419 0
2022-08-17 11:35:25 GMT 36.276760 -82.599480 22,000 310 419 0
2022-08-17 11:35:21 GMT 36.271088 -82.590981 22,000 310 419 0
2022-08-17 11:35:17 GMT 36.267242 -82.585197 22,000 310 419 0
2022-08-17 11:35:14 GMT 36.263397 -82.579475 22,000 310 419 0
2022-08-17 11:35:10 GMT 36.258186 -82.571724 22,000 310 419 0
2022-08-17 11:35:05 GMT 36.247807 -82.556122 22,000 310 419 0
2022-08-17 11:35:00 GMT 36.245453 -82.552643 22,000 310 419 0
2022-08-17 11:34:57 GMT 36.241756 -82.547066 22,000 310 419 -64
2022-08-17 11:34:54 GMT 36.238541 -82.542229 22,000 310 419 -64
2022-08-17 11:34:49 GMT 36.232819 -82.533707 22,000 310 419 0
2022-08-17 11:34:45 GMT 36.219830 -82.514336 22,000 310 420 0
2022-08-17 11:34:40 GMT 36.219830 -82.514336 22,000 310 420 0
2022-08-17 11:34:35 GMT 36.213497 -82.504868 22,000 310 420 0
2022-08-17 11:34:29 GMT 36.207184 -82.495422 22,000 310 420 0
2022-08-17 11:34:26 GMT 36.203350 -82.489731 22,000 310 420 0
2022-08-17 11:34:23 GMT 36.199860 -82.484550 22,000 310 420 0
2022-08-17 11:34:20 GMT 36.195511 -82.478027 22,000 310 420 0
2022-08-17 11:34:16 GMT 36.187088 -82.465439 22,000 310 420 0
2022-08-17 11:34:09 GMT 36.181286 -82.456772 22,000 310 420 0
2022-08-17 11:34:06 GMT 36.178162 -82.452164 22,000 310 420 0
2022-08-17 11:34:03 GMT 36.175186 -82.447716 22,000 310 420 0
2022-08-17 11:33:56 GMT 36.161919 -82.427910 22,000 310 420 0
2022-08-17 11:33:53 GMT 36.161919 -82.427910 22,000 310 420 0
2022-08-17 11:33:45 GMT 36.151772 -82.412712 22,000 310 420 0
2022-08-17 11:33:38 GMT 36.142456 -82.398834 22,000 310 420 0
2022-08-17 11:33:34 GMT 36.130402 -82.380867 22,000 310 421 0
2022-08-17 11:33:27 GMT 36.130402 -82.380867 22,000 310 421 0
2022-08-17 11:33:24 GMT 36.126026 -82.374435 22,000 310 421 0
2022-08-17 11:33:21 GMT 36.122818 -82.369598 22,000 310 421 0
2022-08-17 11:33:17 GMT 36.117599 -82.361870 22,000 310 420 0
2022-08-17 11:33:11 GMT 36.108994 -82.349113 22,000 310 420 0
2022-08-17 11:33:06 GMT 36.104187 -82.341843 22,000 310 421 0
2022-08-17 11:33:03 GMT 36.100296 -82.336121 22,000 310 421 0
2022-08-17 11:33:00 GMT 36.096817 -82.330971 22,000 310 421 0
2022-08-17 11:32:53 GMT 36.086746 -82.315979 22,000 310 421 0
2022-08-17 11:32:50 GMT 36.083385 -82.311028 22,000 310 421 0
2022-08-17 11:32:42 GMT 36.074402 -82.297768 22,000 310 420 0
2022-08-17 11:32:38 GMT 36.069324 -82.290169 22,000 310 420 0
2022-08-17 11:32:33 GMT 36.057968 -82.273399 22,000 310 421 64
2022-08-17 11:32:26 GMT 36.053638 -82.266914 22,000 310 420 0
2022-08-17 11:32:22 GMT 36.048386 -82.259155 22,000 310 421 0
2022-08-17 11:32:19 GMT 36.044540 -82.253433 22,000 310 421 0
2022-08-17 11:32:15 GMT 36.040421 -82.247375 22,000 310 421 0
2022-08-17 11:32:11 GMT 36.035797 -82.240501 22,000 310 421 0
2022-08-17 11:32:08 GMT 36.031338 -82.233894 22,000 310 421 0
2022-08-17 11:32:01 GMT 36.022865 -82.221329 22,000 310 421 0
2022-08-17 11:31:56 GMT 36.017883 -82.213905 22,000 310 421 0
2022-08-17 11:31:51 GMT 36.009796 -82.201881 22,000 310 421 0
2022-08-17 11:31:47 GMT 36.004944 -82.194672 22,000 310 421 0
2022-08-17 11:31:40 GMT 35.997124 -82.183052 22,000 310 421 0
2022-08-17 11:31:34 GMT 35.989769 -82.172180 22,000 310 421 0
2022-08-17 11:31:29 GMT 35.984161 -82.163887 22,000 310 421 0
2022-08-17 11:31:25 GMT 35.979153 -82.156525 22,000 310 421 64
2022-08-17 11:31:20 GMT 35.971565 -82.145241 22,000 310 421 64
2022-08-17 11:31:14 GMT 35.964352 -82.134552 22,000 310 421 0
2022-08-17 11:31:09 GMT 35.958847 -82.126465 22,000 310 421 0
2022-08-17 11:31:03 GMT 35.951157 -82.115021 22,000 310 421 0
2022-08-17 11:30:58 GMT 35.944893 -82.105797 22,000 310 421 0
2022-08-17 11:30:55 GMT 35.939667 -82.098083 22,000 310 421 0
2022-08-17 11:30:49 GMT 35.932926 -82.088089 22,000 310 420 0
2022-08-17 11:30:43 GMT 35.919662 -82.068619 22,000 310 420 0
2022-08-17 11:30:38 GMT 35.919662 -82.068619 22,000 310 421 0
2022-08-17 11:30:34 GMT 35.913887 -82.060158 22,000 310 421 0
2022-08-17 11:30:28 GMT 35.907028 -82.050079 22,000 310 420 64
2022-08-17 11:30:21 GMT 35.899384 -82.038857 22,000 310 420 64
2022-08-17 11:30:18 GMT 35.893730 -82.030586 22,000 310 421 64
2022-08-17 11:30:12 GMT 35.886608 -82.020065 22,000 310 421 0
2022-08-17 11:30:07 GMT 35.880974 -82.011772 22,000 310 421 0
2022-08-17 11:30:01 GMT 35.873852 -82.001251 22,000 310 421 0
2022-08-17 11:29:56 GMT 35.867981 -81.992569 22,000 310 421 0
2022-08-17 11:29:47 GMT 35.855209 -81.973801 22,000 310 421 0
2022-08-17 11:29:41 GMT 35.847969 -81.963089 22,000 310 421 0
2022-08-17 11:29:36 GMT 35.842106 -81.954445 22,000 310 421 0
2022-08-17 11:29:29 GMT 35.834099 -81.942696 22,000 310 420 0
2022-08-17 11:29:25 GMT 35.829300 -81.935692 22,000 310 420 0
2022-08-17 11:29:20 GMT 35.822182 -81.925224 22,000 310 420 0
2022-08-17 11:29:16 GMT 35.816315 -81.916573 22,000 310 420 0
2022-08-17 11:29:10 GMT 35.808586 -81.905235 22,000 310 419 0
2022-08-17 11:29:05 GMT 35.803482 -81.897697 21,825 310 411 1984
2022-08-17 11:28:59 GMT 35.796249 -81.887115 22,000 310 415 192
2022-08-17 11:28:54 GMT 35.790199 -81.878181 21,975 310 415 192
2022-08-17 11:28:48 GMT 35.782658 -81.867195 21,925 310 413 640
2022-08-17 11:28:44 GMT 35.777863 -81.860184 21,875 310 411 1088
2022-08-17 11:28:37 GMT 35.769810 -81.848320 21,725 310 411 1536
2022-08-17 11:28:34 GMT 35.765167 -81.841507 21,600 310 411 1920
2022-08-17 11:28:29 GMT 35.758076 -81.831078 21,400 310 411 1856
2022-08-17 11:28:24 GMT 35.752213 -81.822487 21,275 310 413 1536
2022-08-17 11:28:17 GMT 35.744110 -81.810608 21,125 310 411 1472
2022-08-17 11:28:13 GMT 35.739853 -81.804314 21,025 310 411 1600
2022-08-17 11:28:07 GMT 35.732483 -81.793556 20,850 310 411 1664
2022-08-17 11:28:02 GMT 35.726624 -81.784973 20,725 310 411 1856
2022-08-17 11:27:58 GMT 35.720043 -81.775269 20,550 310 411 2048
2022-08-17 11:27:52 GMT 35.714272 -81.766853 20,375 310 411 2368
2022-08-17 11:27:46 GMT 35.706917 -81.756042 20,125 310 413 2560
2022-08-17 11:27:42 GMT 35.701656 -81.748337 19,925 310 414 2688
2022-08-17 11:27:35 GMT 35.693390 -81.736221 19,650 310 415 2560
2022-08-17 11:27:32 GMT 35.688435 -81.728928 19,475 310 416 2304
2022-08-17 11:27:25 GMT 35.680008 -81.716599 19,250 310 415 1536
2022-08-17 11:27:21 GMT 35.675812 -81.710419 19,150 310 415 1600
2022-08-17 11:27:16 GMT 35.669495 -81.701202 18,925 310 413 1536
2022-08-17 11:27:10 GMT 35.660889 -81.688614 18,850 310 412 1600
2022-08-17 11:27:06 GMT 35.657337 -81.683411 18,775 303 406 1728
2022-08-17 11:27:00 GMT 35.649857 -81.672539 18,575 311 410 1856
2022-08-17 11:26:56 GMT 35.645187 -81.665756 18,475 310 409 1856
2022-08-17 11:26:49 GMT 35.636993 -81.653549 18,250 308 409 1728
2022-08-17 11:26:45 GMT 35.632435 -81.646126 17,975 303 406 1728
2022-08-17 11:26:40 GMT 35.626190 -81.634888 17,975 303 406 1728
2022-08-17 11:26:35 GMT 35.621979 -81.626411 17,825 300 406 1792
2022-08-17 11:26:28 GMT 35.615906 -81.612869 17,625 298 405 2048
2022-08-17 11:26:24 GMT 35.612556 -81.604927 17,475 298 404 2112
2022-08-17 11:26:19 GMT 35.607201 -81.592300 17,250 298 404 2112
2022-08-17 11:26:13 GMT 35.601425 -81.578636 17,000 298 403 2368
2022-08-17 11:26:08 GMT 35.598358 -81.571327 16,850 298 404 2496
2022-08-17 11:26:05 GMT 35.594925 -81.563187 16,550 298 404 2688
2022-08-17 11:26:02 GMT 35.592861 -81.558289 16,600 298 404 2496
2022-08-17 11:25:57 GMT 35.588287 -81.547218 16,350 298 405 2752
2022-08-17 11:25:54 GMT 35.586300 -81.542511 16,250 298 405 2816
2022-08-17 11:25:50 GMT 35.583508 -81.535797 16,100 298 406 2816
2022-08-17 11:25:46 GMT 35.579956 -81.527367 15,925 298 406 2560
2022-08-17 11:25:43 GMT 35.577209 -81.520782 15,550 298 406 1984
2022-08-17 11:25:37 GMT 35.571308 -81.506630 15,600 298 405 1600
2022-08-17 11:25:34 GMT 35.568512 -81.500130 15,500 298 401 1344
2022-08-17 11:25:26 GMT 35.562138 -81.485420 15,350 299 399 1216
2022-08-17 11:25:22 GMT 35.559128 -81.478729 15,275 300 396 1216
2022-08-17 11:25:15 GMT 35.552811 -81.465057 15,150 300 392 1088
2022-08-17 11:25:12 GMT 35.549805 -81.458481 15,100 300 389 1088
2022-08-17 11:25:06 GMT 35.544868 -81.447731 15,000 300 385 1088
2022-08-17 11:25:03 GMT 35.540958 -81.439194 14,900 300 381 1024
2022-08-17 11:25:00 GMT 35.538300 -81.433350 14,850 300 379 1024
2022-08-17 11:24:53 GMT 35.533230 -81.422363 14,750 300 375 1024
2022-08-17 11:24:49 GMT 35.529739 -81.414825 14,675 300 370 1088
2022-08-17 11:24:45 GMT 35.525574 -81.405663 14,575 300 367 1088
2022-08-17 11:24:42 GMT 35.523594 -81.401329 14,550 300 364 1152
2022-08-17 11:24:38 GMT 35.521034 -81.395775 14,475 300 361 1152
2022-08-17 11:24:31 GMT 35.514862 -81.382545 14,350 300 355 1088
2022-08-17 11:24:28 GMT 35.512142 -81.376610 14,275 300 351 1088
2022-08-17 11:24:24 GMT 35.508369 -81.368484 14,200 300 347 1088
2022-08-17 11:24:18 GMT 35.504425 -81.360001 14,100 300 342 1088
2022-08-17 11:24:11 GMT 35.498131 -81.346458 13,950 300 334 1280
2022-08-17 11:24:08 GMT 35.496185 -81.342201 13,875 300 330 1600
2022-08-17 11:24:03 GMT 35.492157 -81.333565 13,700 300 327 2176
2022-08-17 11:23:59 GMT 35.489868 -81.328529 13,600 300 327 2304
2022-08-17 11:23:56 GMT 35.487934 -81.324310 13,500 300 324 2560
2022-08-17 11:23:52 GMT 35.484955 -81.317703 13,300 300 324 2880
2022-08-17 11:23:47 GMT 35.480850 -81.308784 13,025 300 323 3328
2022-08-17 11:23:43 GMT 35.478699 -81.304153 12,850 300 322 3584
2022-08-17 11:23:39 GMT 35.475174 -81.296478 12,625 300 324 3904
2022-08-17 11:23:35 GMT 35.472668 -81.291054 12,325 300 325 4032
2022-08-17 11:23:31 GMT 35.469315 -81.283813 11,875 300 326 3520
2022-08-17 11:23:28 GMT 35.467026 -81.278976 11,875 300 326 3520
2022-08-17 11:23:21 GMT 35.461586 -81.267273 11,500 300 325 2688
2022-08-17 11:23:18 GMT 35.458740 -81.261177 11,325 300 324 2304
2022-08-17 11:23:14 GMT 35.457211 -81.257805 11,250 300 321 2048
2022-08-17 11:23:07 GMT 35.452087 -81.246758 11,075 300 308 1472
2022-08-17 11:23:02 GMT 35.448364 -81.238754 10,925 300 308 1472
2022-08-17 11:22:59 GMT 35.445202 -81.231972 10,825 300 301 1536
2022-08-17 11:22:53 GMT 35.441288 -81.223557 10,650 300 295 1792
2022-08-17 11:22:47 GMT 35.438263 -81.217072 10,450 300 289 2432
2022-08-17 11:22:42 GMT 35.434433 -81.208649 10,250 300 286 3008
2022-08-17 11:22:37 GMT 35.431282 -81.201881 9,875 300 283 3648
2022-08-17 11:22:34 GMT 35.428768 -81.196442 9,725 300 283 3904
2022-08-17 11:22:27 GMT 35.424297 -81.186920 9,425 300 285 4160
2022-08-17 11:22:21 GMT 35.420975 -81.179749 8,950 300 285 3840
2022-08-17 11:22:15 GMT 35.416664 -81.170616 8,650 300 287 3264
2022-08-17 11:22:12 GMT 35.414154 -81.165276 8,400 300 288 2880
2022-08-17 11:22:08 GMT 35.409668 -81.155663 8,150 300 286 1856
2022-08-17 11:22:00 GMT 35.407028 -81.150101 8,050 300 284 1216
2022-08-17 11:21:56 GMT 35.401207 -81.137772 7,950 300 284 576
2022-08-17 11:21:51 GMT 35.401207 -81.137772 7,950 300 284 128
2022-08-17 11:21:46 GMT 35.397583 -81.130089 7,950 300 284 0
2022-08-17 11:21:42 GMT 35.394241 -81.122932 7,975 300 284 0
2022-08-17 11:21:35 GMT 35.390808 -81.115723 7,950 305 283 64
2022-08-17 11:21:29 GMT 35.385471 -81.105751 7,950 307 284 0
2022-08-17 11:21:25 GMT 35.382401 -81.101311 7,950 314 283 128
2022-08-17 11:21:22 GMT 35.378448 -81.097794 7,200 321 277 3904
2022-08-17 11:21:20 GMT 35.376431 -81.095863 7,200 321 277 3904
2022-08-17 11:21:19 GMT 35.375420 -81.094887 7,200 321 277 3904
2022-08-17 11:21:18 GMT 35.374409 -81.093933 7,200 321 277 3904
2022-08-17 11:21:17 GMT 35.372379 -81.091988 7,200 321 277 3904
2022-08-17 11:21:15 GMT 35.370361 -81.090057 7,200 321 277 3904
2022-08-17 11:21:13 GMT 35.369350 -81.089088 7,200 321 277 3904
2022-08-17 11:21:12 GMT 35.368340 -81.088127 7,200 321 277 3904
2022-08-17 11:21:10 GMT 35.366322 -81.086197 7,200 321 277 3904
2022-08-17 11:21:09 GMT 35.365311 -81.085228 7,200 321 277 3904
2022-08-17 11:21:08 GMT 35.363289 -81.083298 7,200 321 277 3904
2022-08-17 11:21:05 GMT 35.361271 -81.081360 7,200 321 277 3904
2022-08-17 11:21:04 GMT 35.359249 -81.079430 7,200 321 277 3904
2022-08-17 11:21:02 GMT 35.357231 -81.077499 7,200 321 277 3904
2022-08-17 11:21:00 GMT 35.356220 -81.076530 7,200 321 277 3904
2022-08-17 11:20:58 GMT 35.354191 -81.074600 7,200 321 277 3904
2022-08-17 11:20:57 GMT 35.353180 -81.073639 7,200 321 277 3904
2022-08-17 11:20:56 GMT 35.351158 -81.071701 7,200 321 277 3904
2022-08-17 11:20:54 GMT 35.350151 -81.070740 7,200 321 277 3904
2022-08-17 11:20:52 GMT 35.348129 -81.068810 7,200 321 277 3904
2022-08-17 11:20:51 GMT 35.347080 -81.067818 7,000 321 276 3904
2022-08-17 11:20:50 GMT 35.346081 -81.066856 7,000 321 276 3904
2022-08-17 11:20:48 GMT 35.344059 -81.064934 7,000 321 276 3904
2022-08-17 11:20:47 GMT 35.343048 -81.063972 7,000 321 276 3904
2022-08-17 11:20:45 GMT 35.340919 -81.062027 6,400 321 274 3904
2022-08-17 11:20:44 GMT 35.339920 -81.061073 6,400 321 274 3904
2022-08-17 11:20:42 GMT 35.337910 -81.059143 6,400 321 274 3904
2022-08-17 11:20:41 GMT 35.336910 -81.058182 6,400 321 274 3904
2022-08-17 11:20:39 GMT 35.334919 -81.056259 6,400 321 274 3904
2022-08-17 11:20:38 GMT 35.333920 -81.055298 6,400 321 274 3904
2022-08-17 11:20:36 GMT 35.331890 -81.053391 6,200 321 273 3904
2022-08-17 11:20:35 GMT 35.329899 -81.051468 6,200 321 273 3904
2022-08-17 11:20:33 GMT 35.328911 -81.050507 6,200 321 273 3904
2022-08-17 11:20:32 GMT 35.327782 -81.049530 5,900 321 271 3904
2022-08-17 11:20:30 GMT 35.325821 -81.047623 5,900 321 271 3904
2022-08-17 11:20:28 GMT 35.323719 -81.045738 5,600 321 269 3904
2022-08-17 11:20:27 GMT 35.322750 -81.044792 5,600 321 269 3904
2022-08-17 11:20:25 GMT 35.320808 -81.042870 5,600 321 269 3904
2022-08-17 11:20:24 GMT 35.319839 -81.041924 5,600 321 269 3904
2022-08-17 11:20:23 GMT 35.318069 -81.040314 5,300 320 277 3904
2022-08-17 11:20:21 GMT 35.317070 -81.039322 5,300 320 277 2048
2022-08-17 11:20:19 GMT 35.315071 -81.037354 5,300 320 277 2048
2022-08-17 11:20:17 GMT 35.313221 -81.035431 5,000 321 279 2048
2022-08-17 11:20:16 GMT 35.312210 -81.034439 5,000 321 279 2048
2022-08-17 11:20:15 GMT 35.311211 -81.033447 5,000 321 279 2048
2022-08-17 11:20:13 GMT 35.308762 -81.031151 4,700 320 258 2048
2022-08-17 11:20:12 GMT 35.306911 -81.029289 4,700 320 258 2048
2022-08-17 11:20:10 GMT 35.305988 -81.028374 4,700 320 258 2048
2022-08-17 11:20:09 GMT 35.304810 -81.027290 4,400 320 253 2048
2022-08-17 11:20:06 GMT 35.302101 -81.024551 4,400 320 253 2048
2022-08-17 11:20:05 GMT 35.300930 -81.023491 4,200 320 248 2048
2022-08-17 11:20:03 GMT 35.299171 -81.021698 4,200 320 248 2048
2022-08-17 11:20:02 GMT 35.298290 -81.020798 4,200 320 248 2048
2022-08-17 11:20:01 GMT 35.296532 -81.018898 4,000 320 247 2048
2022-08-17 11:19:59 GMT 35.295650 -81.018013 4,000 320 247 2048
2022-08-17 11:19:58 GMT 35.293880 -81.016243 4,000 320 247 2048
2022-08-17 11:19:56 GMT 35.292999 -81.015350 4,000 320 247 2048
2022-08-17 11:19:55 GMT 35.291389 -81.013634 3,800 321 252 2048
2022-08-17 11:19:53 GMT 35.290482 -81.012733 3,800 321 252 2048
2022-08-17 11:19:52 GMT 35.289570 -81.011833 3,800 321 252 2048
2022-08-17 11:19:50 GMT 35.287769 -81.010063 3,600 320 253 2048
2022-08-17 11:19:49 GMT 35.286831 -81.009117 3,600 320 250 2048
2022-08-17 11:19:48 GMT 35.285042 -81.007362 3,600 320 251 2048
2022-08-17 11:19:46 GMT 35.284130 -81.006477 3,300 320 249 2048
2022-08-17 11:19:44 GMT 35.282341 -81.004669 3,300 320 247 2048
2022-08-17 11:19:43 GMT 35.281448 -81.003777 3,300 320 243 2048
2022-08-17 11:19:41 GMT 35.279732 -81.002052 3,300 319 246 2048
2022-08-17 11:19:40 GMT 35.278889 -81.001167 3,300 320 246 2048
2022-08-17 11:19:38 GMT 35.277081 -80.999321 3,300 320 236 2048
2022-08-17 11:19:37 GMT 35.276192 -80.998421 3,100 319 231 2048
2022-08-17 11:19:36 GMT 35.274540 -80.996742 3,100 319 228 2048
2022-08-17 11:19:34 GMT 35.272839 -80.995003 3,100 320 220 2048
2022-08-17 11:19:32 GMT 35.272160 -80.994278 3,000 320 230 2048
2022-08-17 11:19:31 GMT 35.271339 -80.993431 3,000 320 228 2048
2022-08-17 11:19:29 GMT 35.269680 -80.991768 3,000 320 225 2048
2022-08-17 11:19:28 GMT 35.268890 -80.990959 2,900 320 224 2048
2022-08-17 11:19:26 GMT 35.267250 -80.989319 2,900 319 218 2048
2022-08-17 11:19:24 GMT 35.265671 -80.987717 2,900 319 212 2048
2022-08-17 11:19:23 GMT 35.264191 -80.986107 2,675 319 212 2048
2022-08-17 11:19:21 GMT 35.263390 -80.985252 2,675 320 204 2624
2022-08-17 11:19:19 GMT 35.261951 -80.983757 2,675 320 206 2624
2022-08-17 11:19:18 GMT 35.260460 -80.982353 2,675 318 207 2624
2022-08-17 11:19:16 GMT 35.259781 -80.981613 2,675 318 209 2624
2022-08-17 11:19:14 GMT 35.258350 -80.979980 2,425 319 205 2624
2022-08-17 11:19:13 GMT 35.257599 -80.979202 2,425 319 201 2624
2022-08-17 11:19:11 GMT 35.256100 -80.977661 2,425 319 192 2624
2022-08-17 11:19:10 GMT 35.255470 -80.976997 2,425 319 197 2624
2022-08-17 11:19:08 GMT 35.254028 -80.975479 2,425 319 190 2624
2022-08-17 11:19:06 GMT 35.252750 -80.974121 2,400 319 198 2624
2022-08-17 11:19:05 GMT 35.252071 -80.973373 2,350 319 196 2624
2022-08-17 11:19:04 GMT 35.250660 -80.971909 2,350 319 191 2624
2022-08-17 11:19:02 GMT 35.249950 -80.971230 2,300 319 188 2624
2022-08-17 11:19:01 GMT 35.248631 -80.969879 2,300 319 187 2624
2022-08-17 11:18:59 GMT 35.247971 -80.969139 2,200 319 183 2624
2022-08-17 11:18:58 GMT 35.246601 -80.967743 2,200 320 172 2624
2022-08-17 11:18:56 GMT 35.245998 -80.967117 2,150 320 175 2624
2022-08-17 11:18:55 GMT 35.244678 -80.965790 2,150 320 170 2624
2022-08-17 11:18:53 GMT 35.244122 -80.965210 2,100 320 176 2624
2022-08-17 11:18:52 GMT 35.242859 -80.963989 2,000 319 176 2624
2022-08-17 11:18:50 GMT 35.242191 -80.963310 2,000 319 171 2624
2022-08-17 11:18:48 GMT 35.240921 -80.962112 2,000 318 169 2624
2022-08-17 11:18:47 GMT 35.240292 -80.961487 2,000 318 166 2624
2022-08-17 11:18:45 GMT 35.239128 -80.960251 1,900 321 163 2624
2022-08-17 11:18:44 GMT 35.238522 -80.959641 1,900 322 160 2624
2022-08-17 11:18:43 GMT 35.237331 -80.958519 1,700 325 158 2624
2022-08-17 11:18:41 GMT 35.236752 -80.958023 1,700 327 162 2624
2022-08-17 11:18:40 GMT 35.235550 -80.957062 1,700 329 168 2624
2022-08-17 11:18:38 GMT 35.234261 -80.956169 1,425 332 171 2624
2022-08-17 11:18:36 GMT 35.233540 -80.955780 1,425 332 169 2624
2022-08-17 11:18:35 GMT 35.232052 -80.954803 1,425 340 151 2624
2022-08-17 11:18:33 GMT 35.231319 -80.954422 1,425 343 143 2624
2022-08-17 11:18:31 GMT 35.230011 -80.953827 1,425 351 139 2624
2022-08-17 11:18:30 GMT 35.229340 -80.953621 1,300 354 137 2624
2022-08-17 11:18:28 GMT 35.228062 -80.953407 1,300 356 136 2624
2022-08-17 11:18:26 GMT 35.226768 -80.953293 1,225 354 145 2624
2022-08-17 11:18:24 GMT 35.225422 -80.953148 1,125 354 145 2624
2022-08-17 11:18:22 GMT 35.224049 -80.952980 1,025 354 147 2624
2022-08-17 11:18:20 GMT 35.222698 -80.952827 950 354 150 96
2022-08-17 11:18:19 GMT 35.222019 -80.952759 950 354 154 96
2022-08-17 11:18:18 GMT 35.220589 -80.952560 875 356 151 96
2022-08-17 11:18:16 GMT 35.219891 -80.952499 825 356 152 96
2022-08-17 11:18:15 GMT 35.218521 -80.952400 725 356 157 96
2022-08-17 11:18:13 GMT 35.217800 -80.952347 725 355 156 96
2022-08-17 11:18:11 GMT 35.216400 -80.952240 625 355 156 -256
2022-08-17 11:18:10 GMT 35.215672 -80.952187 625 355 153 -256
2022-08-17 11:18:08 GMT 35.214260 -80.952026 625 356 147 -256
2022-08-17 11:18:07 GMT 35.213581 -80.952003 625 355 144 -256
2022-08-17 11:18:05 GMT 35.212261 -80.951881 650 355 137 -1312
2022-08-17 11:18:04 GMT 35.211609 -80.951790 650 356 133 -1312
2022-08-17 11:18:02 GMT 35.210388 -80.951736 650 354 127 -1312
2022-08-17 11:18:01 GMT 35.209789 -80.951660 650 355 122 -1312
2022-08-17 11:17:59 GMT 35.208672 -80.951553 650 355 116 -1312
2022-08-17 11:17:58 GMT 35.208130 -80.951500 650 355 112 -1312
2022-08-17 11:17:57 GMT 35.207088 -80.951401 0 356 102 -1312
2022-08-17 11:17:55 GMT 35.206600 -80.951370 0 355 98 -1312
2022-08-17 11:17:54 GMT 35.205719 -80.951302 0 355 91 -32
2022-08-17 11:17:52 GMT 35.205311 -80.951241 0 357 89 -32
2022-08-17 11:17:50 GMT 35.204479 -80.951202 0 356 79 -32
2022-08-17 11:17:49 GMT 35.204102 -80.951180 0 357 73 -32
2022-08-17 11:17:47 GMT 35.203430 -80.951111 0 358 65 -32
2022-08-17 11:17:45 GMT 35.202808 -80.951080 0 357 53 -32
2022-08-17 11:17:44 GMT 35.202530 -80.951088 0 355 46 -32
2022-08-17 11:17:42 GMT 35.202068 -80.951050 0 354 36 -32
2022-08-17 11:17:40 GMT 35.201649 -80.950989 0 353 25 0
2022-08-17 11:17:39 GMT 35.201511 -80.950981 0 352 22 0
2022-08-17 11:17:38 GMT 35.201271 -80.950912 0 0 15 0
2022-08-17 11:17:35 GMT 35.201118 -80.950928 0 354 14 0
2022-08-17 11:17:34 GMT 35.201050 -80.950928 0 355 13 -64
2022-08-17 11:17:33 GMT 35.200890 -80.950897 0 355 11 -64
2022-08-17 11:17:31 GMT 35.200840 -80.950897 0 356 11 -64
2022-08-17 11:17:30 GMT 35.200790 -80.950890 0 357 11 -64
2022-08-17 11:17:28 GMT 35.200691 -80.950912 0 344 11 0
2022-08-17 11:17:27 GMT 35.200569 -80.950867 0 329 9 0
2022-08-17 11:17:25 GMT 35.200520 -80.950890 0 322 9 0
2022-08-17 11:17:23 GMT 35.200439 -80.950867 0 309 9 -64
2022-08-17 11:17:22 GMT 35.200409 -80.950844 0 306 10 -64
2022-08-17 11:17:20 GMT 35.200340 -80.950790 0 290 11 -64
2022-08-17 11:17:19 GMT 35.200291 -80.950737 0 282 11 -64
2022-08-17 11:17:18 GMT 35.200260 -80.950607 0 281 9 -64
2022-08-17 11:17:15 GMT 35.200272 -80.950493 0 300 7 0
2022-08-17 11:17:14 GMT 35.200279 -80.950447 0 304 8 0
2022-08-17 11:17:12 GMT 35.200272 -80.950378 0 298 10 0
2022-08-17 11:17:11 GMT 35.200191 -80.950340 0 273 7 0
2022-08-17 11:17:10 GMT 35.200150 -80.950256 0 263 7 0
2022-08-17 11:17:08 GMT 35.200142 -80.950218 0 259 7 0
2022-08-17 11:17:06 GMT 35.200119 -80.950119 0 244 6 0
2022-08-17 11:17:05 GMT 35.200142 -80.950058 0 244 5 0
2022-08-17 11:17:03 GMT 35.200161 -80.950043 0 251 5 0
2022-08-17 11:17:01 GMT 35.200199 -80.949997 0 259 5 0
2022-08-17 11:17:00 GMT 35.200191 -80.949982 0 259 6 0
2022-08-17 11:16:58 GMT 35.200211 -80.949921 0 262 6 0
2022-08-17 11:16:57 GMT 35.200211 -80.949852 0 265 4 0
2022-08-17 11:16:56 GMT 35.200230 -80.949852 0 269 4 0
2022-08-17 11:16:55 GMT 35.200218 -80.949730 0 278 3 0
2022-08-17 11:16:53 GMT 35.200218 -80.949677 0 278 2 0
2022-08-17 11:16:51 GMT 35.200218 -80.949577 0 278 2 0
2022-08-17 11:16:50 GMT 35.200218 -80.949532 0 279 0 0
2022-08-17 11:16:48 GMT 35.200218 -80.949532 0 279 1 0
2022-08-17 11:16:46 GMT 35.200241 -80.949501 0 280 0 0
2022-08-17 11:16:45 GMT 35.200241 -80.949509 0 280 0 0
2022-08-17 11:16:44 GMT 35.200241 -80.949516 0 280 0 0
2022-08-17 11:16:42 GMT 35.200241 -80.949516 0 280 0 0
2022-08-17 11:16:41 GMT 35.200241 -80.949501 0 276 0 0
2022-08-17 11:16:33 GMT 35.200241 -80.949539 0 263 0 0
2022-08-17 11:16:28 GMT 35.200230 -80.949539 0 262 0 0
2022-08-17 11:16:27 GMT 35.200218 -80.949532 0 262 0 0
2022-08-17 11:16:25 GMT 35.200199 -80.949516 0 262 1 0
2022-08-17 11:16:24 GMT 35.200199 -80.949547 0 261 1 0
2022-08-17 11:16:22 GMT 35.200199 -80.949547 0 262 2 0
2022-08-17 11:16:21 GMT 35.200241 -80.949509 0 263 0 0
2022-08-17 11:16:18 GMT 35.200241 -80.949493 0 263 1 0
2022-08-17 11:16:17 GMT 35.200241 -80.949532 0 263 0 0
2022-08-17 11:16:12 GMT 35.200241 -80.949547 0 266 0 0
2022-08-17 11:16:10 GMT 35.200241 -80.949539 0 266 0 0
2022-08-17 11:16:09 GMT 35.200241 -80.949562 0 269 1 0
2022-08-17 11:16:05 GMT 35.200241 -80.949577 0 269 4 0
2022-08-17 11:16:04 GMT 35.200241 -80.949562 0 268 4 0
2022-08-17 11:16:03 GMT 35.200211 -80.949562 0 254 7 0
2022-08-17 11:16:01 GMT 35.200199 -80.949509 0 250 8 0
2022-08-17 11:15:59 GMT 35.200199 -80.949463 0 249 9 0
2022-08-17 11:15:58 GMT 35.200249 -80.949287 0 256 2 0
2022-08-17 11:15:55 GMT 35.200279 -80.949287 0 252 3 0
2022-08-17 11:15:54 GMT 35.200272 -80.949280 0 245 4 0
2022-08-17 11:15:52 GMT 35.200260 -80.949211 0 233 3 0
2022-08-17 11:15:51 GMT 35.200249 -80.949203 0 224 6 0
2022-08-17 11:15:49 GMT 35.200260 -80.949173 0 218 6 0
2022-08-17 11:15:48 GMT 35.200291 -80.949097 0 207 7 0
2022-08-17 11:15:45 GMT 35.200378 -80.949020 0 201 4 0
2022-08-17 11:15:44 GMT 35.200401 -80.948990 0 198 4 0
2022-08-17 11:15:43 GMT 35.200470 -80.948936 0 191 3 0
2022-08-17 11:15:41 GMT 35.200508 -80.948914 0 190 2 0
2022-08-17 11:15:39 GMT 35.200562 -80.948921 0 190 1 0
2022-08-17 11:15:38 GMT 35.200569 -80.948898 0 190 1 0
2022-08-17 11:15:36 GMT 35.200600 -80.948914 0 191 0 0
2022-08-17 11:15:35 GMT 35.200600 -80.948898 0 191 0 0
2022-08-17 11:15:34 GMT 35.200611 -80.948891 0 191 0 0
2022-08-17 11:15:32 GMT 35.200611 -80.948914 0 191 0 -32
2022-08-17 11:15:30 GMT 35.200600 -80.948921 0 191 0 -32
2022-08-17 11:15:28 GMT 35.200619 -80.948898 0 191 0 -32
2022-08-17 11:15:26 GMT 35.200619 -80.948898 0 191 0 -32
2022-08-17 11:15:24 GMT 35.200611 -80.948898 0 191 0 -32
2022-08-17 11:15:23 GMT 35.200630 -80.948898 0 191 0 0
2022-08-17 11:15:21 GMT 35.200630 -80.948891 0 191 0 0
2022-08-17 11:15:19 GMT 35.200619 -80.948898 0 191 0 0
2022-08-17 11:15:18 GMT 35.200630 -80.948891 0 191 0 0
2022-08-17 11:15:17 GMT 35.200611 -80.948891 0 191 0 0
2022-08-17 11:15:15 GMT 35.200611 -80.948891 0 191 0 0
2022-08-17 11:15:14 GMT 35.200642 -80.948891 0 192 1 0
2022-08-17 11:15:12 GMT 35.200649 -80.948898 0 192 1 0
2022-08-17 11:15:11 GMT 35.200619 -80.948898 0 191 2 0
2022-08-17 11:15:09 GMT 35.200619 -80.948891 0 191 2 0
2022-08-17 11:15:07 GMT 35.200642 -80.948891 0 191 1 0
2022-08-17 11:15:06 GMT 35.200649 -80.948898 0 191 1 0
2022-08-17 11:15:05 GMT 35.200630 -80.948891 0 191 0 0
2022-08-17 11:15:03 GMT 35.200630 -80.948898 0 191 1 0
2022-08-17 11:15:01 GMT 35.200630 -80.948898 0 189 1 0
2022-08-17 11:15:00 GMT 35.200619 -80.948921 0 189 2 0
2022-08-17 11:14:58 GMT 35.200619 -80.948921 0 187 2 0
2022-08-17 11:14:57 GMT 35.200642 -80.948891 0 187 0 0
2022-08-17 11:14:55 GMT 35.200619 -80.948914 0 187 0 0
2022-08-17 11:14:53 GMT 35.200630 -80.948891 0 187 0 0
2022-08-17 11:14:52 GMT 35.200649 -80.948898 0 187 0 0
2022-08-17 11:14:49 GMT 35.200642 -80.948898 0 187 0 0
2022-08-17 11:14:48 GMT 35.200630 -80.948898 0 187 0 0
2022-08-17 11:14:47 GMT 35.200630 -80.948914 0 187 0 -64
2022-08-17 11:14:44 GMT 35.200630 -80.948898 0 187 0 -64
2022-08-17 11:14:41 GMT 35.200630 -80.948891 0 187 0 -32
2022-08-17 11:14:38 GMT 35.200630 -80.948898 0 187 0 -32
2022-08-17 11:14:36 GMT 35.200642 -80.948898 0 187 0 -32
2022-08-17 11:14:34 GMT 35.200630 -80.948891 0 187 0 -32
2022-08-17 11:14:33 GMT 35.200630 -80.948898 0 187 0 -32
2022-08-17 11:14:30 GMT 35.200642 -80.948898 0 187 0 -32
2022-08-17 11:14:29 GMT 35.200642 -80.948891 0 187 0 -32
2022-08-17 11:14:27 GMT 35.200642 -80.948891 0 187 0 -32
2022-08-17 11:14:24 GMT 35.200630 -80.948891 0 187 0 -32
2022-08-17 11:14:23 GMT 35.200630 -80.948898 0 187 0 -32
2022-08-17 11:14:22 GMT 35.200649 -80.948898 0 187 0 0
2022-08-17 11:14:21 GMT 35.200619 -80.948914 0 187 0 0
2022-08-17 11:14:20 GMT 35.200630 -80.948891 0 187 0 0
2022-08-17 11:14:17 GMT 35.200630 -80.948891 0 185 0 0
2022-08-17 11:14:16 GMT 35.200611 -80.948891 0 185 0 0
2022-08-17 11:14:13 GMT 35.200600 -80.948891 0 185 0 0
2022-08-17 11:14:11 GMT 35.200611 -80.948883 0 185 0 0
2022-08-17 11:14:08 GMT 35.200600 -80.948883 0 185 0 0
2022-08-17 11:14:06 GMT 35.200642 -80.948853 0 191 2 0
2022-08-17 11:14:04 GMT 35.200630 -80.948860 0 193 3 0
2022-08-17 11:13:44 GMT 35.200581 -80.948898 0 183 0 128
2022-08-17 11:13:42 GMT 35.200569 -80.948898 0 181 0 128
2022-08-17 11:13:41 GMT 35.200562 -80.948898 0 180 1 128
2022-08-17 11:13:40 GMT 35.200588 -80.948921 0 180 2 128
2022-08-17 11:13:38 GMT 35.200562 -80.948921 0 179 2 128
2022-08-17 11:13:37 GMT 35.200562 -80.948898 0 178 3 0
2022-08-17 11:13:35 GMT 35.200581 -80.948868 0 178 2 0
2022-08-17 11:13:34 GMT 35.200550 -80.948868 0 180 7 0
2022-08-17 11:13:33 GMT 35.200588 -80.948883 0 179 9 0
2022-08-17 11:13:31 GMT 35.200619 -80.948860 0 176 10 0
2022-08-17 11:13:30 GMT 35.200741 -80.948837 0 168 10 0
2022-08-17 11:13:28 GMT 35.200821 -80.948860 0 169 7 0
2022-08-17 11:13:27 GMT 35.200871 -80.948853 0 170 6 0
2022-08-17 11:13:25 GMT 35.200878 -80.948921 0 184 10 0
2022-08-17 11:13:23 GMT 35.200951 -80.948898 0 178 12 0
2022-08-17 11:13:22 GMT 35.201019 -80.948860 0 169 9 0
2022-08-17 11:13:21 GMT 35.201099 -80.948860 0 174 13 -32
2022-08-17 11:13:19 GMT 35.201141 -80.948936 0 183 13 -32
2022-08-17 11:13:17 GMT 35.201248 -80.948936 0 185 16 -32
2022-08-17 11:13:16 GMT 35.201340 -80.948914 0 178 14 -32
2022-08-17 11:13:15 GMT 35.201469 -80.948891 0 168 16 -32
2022-08-17 11:13:12 GMT 35.201611 -80.948936 0 174 17 -32
2022-08-17 11:13:11 GMT 35.201691 -80.948929 0 170 18 -32
2022-08-17 11:13:10 GMT 35.201832 -80.948967 0 172 19 -32
2022-08-17 11:13:08 GMT 35.201920 -80.949013 0 178 19 -32
2022-08-17 11:13:07 GMT 35.202091 -80.949013 0 176 20 -32
2022-08-17 11:13:05 GMT 35.202209 -80.949028 0 180 18 -32
2022-08-17 11:13:04 GMT 35.202358 -80.949013 0 175 19 -32
2022-08-17 11:13:02 GMT 35.202412 -80.948990 0 172 23 -32
2022-08-17 11:13:01 GMT 35.202629 -80.949028 0 174 20 -32
2022-08-17 11:12:59 GMT 35.202721 -80.949028 0 173 20 -32
2022-08-17 11:12:58 GMT 35.202801 -80.949089 0 179 21 -32
2022-08-17 11:12:57 GMT 35.202991 -80.949074 0 175 21 -32
2022-08-17 11:12:55 GMT 35.203091 -80.949059 0 170 20 -32
2022-08-17 11:12:53 GMT 35.203270 -80.949081 0 166 22 -32
2022-08-17 11:12:52 GMT 35.203369 -80.949127 0 170 22 0
2022-08-17 11:12:50 GMT 35.203609 -80.949219 0 183 18 0
2022-08-17 11:12:49 GMT 35.203739 -80.949181 0 180 21 0
2022-08-17 11:12:47 GMT 35.203850 -80.949181 0 180 20 0
2022-08-17 11:12:46 GMT 35.204010 -80.949173 0 183 22 0
2022-08-17 11:12:44 GMT 35.204121 -80.949127 0 175 21 0
2022-08-17 11:12:43 GMT 35.204201 -80.949089 0 167 23 0
2022-08-17 11:12:41 GMT 35.204391 -80.949188 0 175 24 0
2022-08-17 11:12:40 GMT 35.204632 -80.949203 0 173 23 0
2022-08-17 11:12:38 GMT 35.204731 -80.949211 0 173 24 0
2022-08-17 11:12:37 GMT 35.204960 -80.949242 0 177 23 0
2022-08-17 11:12:35 GMT 35.205070 -80.949226 0 171 22 0
2022-08-17 11:12:34 GMT 35.205269 -80.949287 0 176 23 0
2022-08-17 11:12:32 GMT 35.205372 -80.949303 0 177 23 0
2022-08-17 11:12:31 GMT 35.205479 -80.949287 0 172 21 0
2022-08-17 11:12:29 GMT 35.205688 -80.949341 0 178 21 0
2022-08-17 11:12:28 GMT 35.205799 -80.949348 0 178 20 0
2022-08-17 11:12:27 GMT 35.206020 -80.949364 0 182 17 0
2022-08-17 11:12:25 GMT 35.206070 -80.949333 0 175 19 0
2022-08-17 11:12:23 GMT 35.206242 -80.949348 0 175 20 0
2022-08-17 11:12:22 GMT 35.206348 -80.949348 0 173 19 0
2022-08-17 11:12:21 GMT 35.206509 -80.949379 0 175 20 0
2022-08-17 11:12:19 GMT 35.206619 -80.949402 0 177 18 0
2022-08-17 11:12:17 GMT 35.206879 -80.949402 0 173 17 0
2022-08-17 11:12:15 GMT 35.206959 -80.949417 0 176 18 0
2022-08-17 11:12:14 GMT 35.207119 -80.949417 0 174 18 0
2022-08-17 11:12:12 GMT 35.207199 -80.949417 0 169 19 0
2022-08-17 11:12:11 GMT 35.207371 -80.949471 0 177 17 0
2022-08-17 11:12:09 GMT 35.207458 -80.949478 0 176 16 0
2022-08-17 11:12:07 GMT 35.207581 -80.949493 0 179 18 0
2022-08-17 11:12:06 GMT 35.207661 -80.949493 0 179 18 0
2022-08-17 11:12:04 GMT 35.207840 -80.949478 0 172 18 0
2022-08-17 11:12:03 GMT 35.208012 -80.949532 0 183 17 0
2022-08-17 11:12:01 GMT 35.208160 -80.949501 0 174 16 0
2022-08-17 11:11:59 GMT 35.208241 -80.949501 0 168 16 0
2022-08-17 11:11:58 GMT 35.208309 -80.949501 0 166 16 0
2022-08-17 11:11:56 GMT 35.208481 -80.949577 0 183 14 0
2022-08-17 11:11:54 GMT 35.208611 -80.949562 0 172 13 0
2022-08-17 11:11:53 GMT 35.208660 -80.949532 0 165 14 0
2022-08-17 11:11:51 GMT 35.208759 -80.949562 0 169 15 0
2022-08-17 11:11:50 GMT 35.208832 -80.949577 0 175 14 0
2022-08-17 11:11:49 GMT 35.208900 -80.949608 0 183 14 0
2022-08-17 11:11:47 GMT 35.209030 -80.949608 0 200 12 0
2022-08-17 11:11:46 GMT 35.209129 -80.949570 0 203 14 0
2022-08-17 11:11:44 GMT 35.209209 -80.949532 0 219 11 0
2022-08-17 11:11:42 GMT 35.209320 -80.949471 0 233 10 0
2022-08-17 11:11:41 GMT 35.209351 -80.949432 0 233 10 0
2022-08-17 11:11:40 GMT 35.209381 -80.949341 0 224 14 0
2022-08-17 11:11:38 GMT 35.209431 -80.949287 0 225 15 0
2022-08-17 11:11:36 GMT 35.209511 -80.949173 0 226 17 0
2022-08-17 11:11:35 GMT 35.209560 -80.949097 0 225 17 0
2022-08-17 11:11:33 GMT 35.209679 -80.948959 0 226 16 0
2022-08-17 11:11:32 GMT 35.209721 -80.948898 0 226 16 0
2022-08-17 11:11:30 GMT 35.209831 -80.948769 0 226 17 0
2022-08-17 11:11:29 GMT 35.209888 -80.948708 0 231 17 0
2022-08-17 11:11:27 GMT 35.209980 -80.948563 0 232 17 0
2022-08-17 11:11:26 GMT 35.210041 -80.948486 0 234 16 0
2022-08-17 11:11:24 GMT 35.210121 -80.948349 0 231 17 0
2022-08-17 11:11:23 GMT 35.210152 -80.948257 0 226 17 0
2022-08-17 11:11:20 GMT 35.210320 -80.948059 0 227 16 0
2022-08-17 11:11:19 GMT 35.210419 -80.947952 0 228 17 0
2022-08-17 11:11:17 GMT 35.210461 -80.947868 0 225 18 0
2022-08-17 11:11:15 GMT 35.210602 -80.947723 0 232 17 0
2022-08-17 11:11:14 GMT 35.210678 -80.947578 0 228 20 0
2022-08-17 11:11:12 GMT 35.210751 -80.947487 0 229 19 0
2022-08-17 11:11:11 GMT 35.210812 -80.947411 0 230 18 0
2022-08-17 11:11:09 GMT 35.210899 -80.947250 0 227 20 0
2022-08-17 11:11:08 GMT 35.210960 -80.947151 0 224 19 0
2022-08-17 11:11:07 GMT 35.211029 -80.947083 0 228 19 0
2022-08-17 11:11:05 GMT 35.211151 -80.946930 0 231 20 0
2022-08-17 11:11:04 GMT 35.211201 -80.946854 0 232 21 0
2022-08-17 11:11:02 GMT 35.211311 -80.946663 0 227 22 0
2022-08-17 11:11:00 GMT 35.211441 -80.946480 0 226 23 0
2022-08-17 11:10:59 GMT 35.211510 -80.946388 0 227 24 0
2022-08-17 11:10:57 GMT 35.211658 -80.946167 0 222 23 0
2022-08-17 11:10:56 GMT 35.211739 -80.946114 0 229 25 0
2022-08-17 11:10:54 GMT 35.211880 -80.945892 0 225 26 0
2022-08-17 11:10:53 GMT 35.211960 -80.945793 0 224 27 0
2022-08-17 11:10:52 GMT 35.212051 -80.945686 0 226 28 0
2022-08-17 11:10:50 GMT 35.212231 -80.945457 0 229 25 0
2022-08-17 11:10:49 GMT 35.212379 -80.945259 0 228 26 0
2022-08-17 11:10:47 GMT 35.212471 -80.945160 0 229 26 0
2022-08-17 11:10:46 GMT 35.212620 -80.944931 0 231 27 0
2022-08-17 11:10:44 GMT 35.212681 -80.944809 0 229 28 0
2022-08-17 11:10:43 GMT 35.212849 -80.944557 0 226 28 0
2022-08-17 11:10:41 GMT 35.212940 -80.944450 0 225 28 0
2022-08-17 11:10:40 GMT 35.213120 -80.944206 0 225 25 0
2022-08-17 11:10:38 GMT 35.213299 -80.944031 0 230 27 0
2022-08-17 11:10:36 GMT 35.213402 -80.943916 0 238 27 0
2022-08-17 11:10:34 GMT 35.213531 -80.943642 0 228 24 0
2022-08-17 11:10:32 GMT 35.213680 -80.943428 0 228 23 0
2022-08-17 11:10:31 GMT 35.213749 -80.943321 0 225 22 0
2022-08-17 11:10:30 GMT 35.213810 -80.943230 0 224 22 0
2022-08-17 11:10:28 GMT 35.213982 -80.943062 0 231 23 0
2022-08-17 11:10:27 GMT 35.214111 -80.942863 0 227 23 0
2022-08-17 11:10:25 GMT 35.214180 -80.942780 0 228 24 0
2022-08-17 11:10:24 GMT 35.214249 -80.942657 0 227 23 0
2022-08-17 11:10:22 GMT 35.214401 -80.942467 0 228 22 -32
2022-08-17 11:10:21 GMT 35.214539 -80.942268 0 228 21 -32
2022-08-17 11:10:19 GMT 35.214611 -80.942177 0 227 21 -32
2022-08-17 11:10:18 GMT 35.214668 -80.942101 0 227 22 -32
2022-08-17 11:10:16 GMT 35.214821 -80.941933 0 234 21 -32
2022-08-17 11:10:15 GMT 35.214939 -80.941727 0 232 19 -32
2022-08-17 11:10:13 GMT 35.214981 -80.941643 0 227 19 -32
2022-08-17 11:10:12 GMT 35.215080 -80.941460 0 219 18 -32
2022-08-17 11:10:10 GMT 35.215240 -80.941338 0 231 18 -32
2022-08-17 11:10:08 GMT 35.215290 -80.941261 0 228 19 -32
2022-08-17 11:10:06 GMT 35.215408 -80.941109 0 233 18 -32
2022-08-17 11:10:05 GMT 35.215511 -80.940910 0 226 16 -32
2022-08-17 11:10:03 GMT 35.215618 -80.940781 0 228 15 -32
2022-08-17 11:10:01 GMT 35.215649 -80.940712 0 223 16 -32
2022-08-17 11:10:00 GMT 35.215721 -80.940666 0 234 17 -32
2022-08-17 11:09:59 GMT 35.215801 -80.940514 0 230 16 -32
2022-08-17 11:09:57 GMT 35.215858 -80.940430 0 230 15 -32
2022-08-17 11:09:56 GMT 35.215900 -80.940361 0 232 13 -32
2022-08-17 11:09:54 GMT 35.215988 -80.940231 0 226 12 -32
2022-08-17 11:09:53 GMT 35.216068 -80.940132 0 229 12 -32
2022-08-17 11:09:51 GMT 35.216099 -80.940079 0 229 14 -32
2022-08-17 11:09:49 GMT 35.216179 -80.939957 0 228 10 -32
2022-08-17 11:09:47 GMT 35.216251 -80.939857 0 222 10 -32
2022-08-17 11:09:46 GMT 35.216270 -80.939827 0 213 10 -32
2022-08-17 11:09:44 GMT 35.216331 -80.939751 0 207 12 -32
2022-08-17 11:09:43 GMT 35.216381 -80.939713 0 197 11 -32
2022-08-17 11:09:41 GMT 35.216461 -80.939636 0 185 11 -32
2022-08-17 11:09:40 GMT 35.216560 -80.939621 0 173 10 -32
2022-08-17 11:09:38 GMT 35.216610 -80.939598 0 159 9 -32
2022-08-17 11:09:36 GMT 35.216690 -80.939598 0 151 8 -32
2022-08-17 11:09:35 GMT 35.216721 -80.939636 0 151 8 -32
2022-08-17 11:09:33 GMT 35.216789 -80.939659 0 144 7 -32
2022-08-17 11:09:32 GMT 35.216820 -80.939697 0 144 6 -32
2022-08-17 11:09:30 GMT 35.216869 -80.939728 0 137 7 0
2022-08-17 11:09:29 GMT 35.216900 -80.939781 0 140 9 0
2022-08-17 11:09:27 GMT 35.216942 -80.939796 0 136 8 0
2022-08-17 11:09:25 GMT 35.217010 -80.939880 0 132 6 0
2022-08-17 11:09:24 GMT 35.217041 -80.939903 0 133 5 0
2022-08-17 11:09:22 GMT 35.217018 -80.939919 0 153 9 0
2022-08-17 11:09:21 GMT 35.217060 -80.939972 0 156 9 0
2022-08-17 11:09:19 GMT 35.217159 -80.940010 0 158 5 0
2022-08-17 11:09:18 GMT 35.217190 -80.940033 0 165 3 0
2022-08-17 11:09:16 GMT 35.217209 -80.940048 0 155 4 0
2022-08-17 11:09:14 GMT 35.217239 -80.940033 0 152 3 -32
2022-08-17 11:09:12 GMT 35.217270 -80.940071 0 149 3 -32
2022-08-17 11:09:11 GMT 35.217289 -80.940071 0 149 2 -32
2022-08-17 11:09:09 GMT 35.217319 -80.940048 0 149 0 -32
2022-08-17 11:09:07 GMT 35.217339 -80.940079 0 150 0 -32
2022-08-17 11:09:05 GMT 35.217312 -80.940063 0 150 3 -32
2022-08-17 11:09:03 GMT 35.217331 -80.940079 0 132 3 -32
2022-08-17 11:09:02 GMT 35.217350 -80.940071 0 89 4 -32
2022-08-17 11:09:00 GMT 35.217388 -80.940086 0 58 3 -32
2022-08-17 11:08:59 GMT 35.217388 -80.940102 0 56 3 -32
2022-08-17 11:08:56 GMT 35.217442 -80.940163 0 35 2 -32
2022-08-17 11:08:54 GMT 35.217449 -80.940193 0 33 2 0
2022-08-17 11:08:52 GMT 35.217449 -80.940277 0 32 0 0
2022-08-17 11:08:49 GMT 35.217449 -80.940269 0 32 0 0
2022-08-17 11:08:48 GMT 35.217449 -80.940277 0 32 0 0
2022-08-17 11:08:47 GMT 35.217430 -80.940292 0 32 0 0
2022-08-17 11:08:43 GMT 35.217442 -80.940269 0 32 0 0
2022-08-17 11:08:42 GMT 35.217442 -80.940300 0 31 0 0
2022-08-17 11:08:40 GMT 35.217442 -80.940292 0 31 0 0
2022-08-17 11:08:37 GMT 35.217442 -80.940300 0 31 0 0
2022-08-17 11:08:36 GMT 35.217442 -80.940300 0 39 1 0
2022-08-17 11:08:34 GMT 35.217430 -80.940292 0 39 1 0
2022-08-17 11:08:32 GMT 35.217430 -80.940262 0 33 2 0
2022-08-17 11:08:31 GMT 35.217442 -80.940262 0 29 1 0
2022-08-17 11:08:30 GMT 35.217442 -80.940269 0 25 1 0
2022-08-17 11:08:28 GMT 35.217461 -80.940277 0 16 2 0
2022-08-17 11:08:26 GMT 35.217461 -80.940308 0 16 0 0
2022-08-17 11:08:24 GMT 35.217480 -80.940323 0 16 1 0
2022-08-17 11:08:22 GMT 35.217491 -80.940331 0 16 2 0
2022-08-17 11:08:20 GMT 35.217468 -80.940323 0 13 0 0
2022-08-17 11:08:19 GMT 35.217491 -80.940308 0 13 0 0
2022-08-17 11:08:17 GMT 35.217491 -80.940323 0 13 1 0
2022-08-17 11:08:15 GMT 35.217468 -80.940308 0 13 0 0
2022-08-17 11:08:14 GMT 35.217499 -80.940323 0 26 4 0
2022-08-17 11:08:12 GMT 35.217430 -80.940292 0 60 1 0
2022-08-17 11:08:09 GMT 35.217419 -80.940292 0 54 4 0
2022-08-17 11:08:08 GMT 35.217442 -80.940331 0 55 4 0
2022-08-17 11:08:06 GMT 35.217411 -80.940331 0 54 3 0
2022-08-17 11:08:05 GMT 35.217388 -80.940338 0 65 5 0
2022-08-17 11:08:03 GMT 35.217369 -80.940369 0 74 5 0
2022-08-17 11:08:02 GMT 35.217361 -80.940437 0 91 3 0
2022-08-17 11:08:00 GMT 35.217331 -80.940460 0 92 2 0
2022-08-17 11:07:59 GMT 35.217331 -80.940468 0 92 2 0
2022-08-17 11:07:57 GMT 35.217339 -80.940468 0 97 6 0
2022-08-17 11:07:56 GMT 35.217319 -80.940498 0 107 6 0
2022-08-17 11:07:54 GMT 35.217319 -80.940567 0 127 6 0
2022-08-17 11:07:53 GMT 35.217350 -80.940666 0 162 0 0
2022-08-17 11:07:50 GMT 35.217361 -80.940681 0 162 1 0
2022-08-17 11:07:49 GMT 35.217361 -80.940666 0 162 2 0
2022-08-17 11:07:46 GMT 35.217388 -80.940689 0 150 3 0
2022-08-17 11:07:43 GMT 35.217400 -80.940697 0 149 5 0
2022-08-17 11:07:42 GMT 35.217419 -80.940697 0 150 4 0
2022-08-17 11:07:41 GMT 35.217430 -80.940712 0 150 6 0
2022-08-17 11:07:40 GMT 35.217499 -80.940750 0 149 1 0
2022-08-17 11:07:38 GMT 35.217510 -80.940750 0 150 1 0
2022-08-17 11:07:36 GMT 35.217510 -80.940758 0 147 3 0
2022-08-17 11:07:34 GMT 35.217522 -80.940758 0 151 6 0
2022-08-17 11:07:32 GMT 35.217579 -80.940811 0 148 2 0
2022-08-17 11:07:31 GMT 35.217609 -80.940819 0 148 0 0
2022-08-17 11:07:29 GMT 35.217590 -80.940804 0 153 6 0
2022-08-17 11:07:28 GMT 35.217651 -80.940826 0 157 5 0
2022-08-17 11:07:26 GMT 35.217640 -80.940849 0 158 6 0
2022-08-17 11:07:24 GMT 35.217701 -80.940849 0 160 6 0
2022-08-17 11:07:23 GMT 35.217739 -80.940903 0 167 4 0
2022-08-17 11:07:22 GMT 35.217758 -80.940903 0 163 6 0
2022-08-17 11:07:20 GMT 35.217819 -80.940903 0 149 7 32
2022-08-17 11:07:18 GMT 35.217850 -80.940918 0 146 5 32
2022-08-17 11:07:17 GMT 35.217869 -80.940910 0 141 6 -96
2022-08-17 11:07:15 GMT 35.217918 -80.940964 0 111 3 -96
2022-08-17 11:07:14 GMT 35.217972 -80.940971 0 108 2 -96
2022-08-17 11:07:13 GMT 35.217960 -80.940941 0 105 2 0
2022-08-17 11:07:11 GMT 35.217941 -80.940933 0 82 5 0
2022-08-17 11:07:08 GMT 35.218010 -80.940903 0 49 1 0
2022-08-17 11:07:07 GMT 35.218021 -80.940903 0 46 1 0
2022-08-17 11:07:05 GMT 35.218071 -80.940910 0 46 0 0
2022-08-17 11:07:04 GMT 35.218060 -80.940903 0 46 1 0
2022-08-17 11:07:02 GMT 35.218109 -80.940933 0 46 0 0
2022-08-17 11:07:01 GMT 35.218090 -80.940910 0 46 0 0
2022-08-17 11:06:58 GMT 35.218090 -80.940933 0 46 1 0
2022-08-17 11:06:55 GMT 35.218079 -80.940910 0 46 0 0
2022-08-17 11:06:52 GMT 35.218090 -80.940887 0 46 0 0
2022-08-17 11:06:51 GMT 35.218079 -80.940887 0 46 0 0
2022-08-17 11:06:47 GMT 35.218090 -80.940933 0 46 1 0
2022-08-17 11:06:44 GMT 35.218121 -80.940910 0 46 0 0
2022-08-17 11:06:43 GMT 35.218140 -80.940880 0 47 0 0
2022-08-17 11:06:40 GMT 35.218140 -80.940842 0 47 0 0
2022-08-17 11:06:38 GMT 35.218170 -80.940826 0 47 0 32
2022-08-17 11:06:37 GMT 35.218121 -80.940872 0 47 0 32
2022-08-17 11:06:35 GMT 35.218090 -80.940910 0 47 0 32
2022-08-17 11:06:32 GMT 35.218090 -80.941002 0 47 2 32
2022-08-17 11:06:30 GMT 35.218090 -80.940987 0 47 2 32
2022-08-17 11:06:28 GMT 35.218128 -80.940880 0 47 0 32
2022-08-17 11:06:27 GMT 35.218151 -80.940842 0 47 0 32
2022-08-17 11:06:25 GMT 35.218170 -80.940811 0 47 0 32
2022-08-17 11:06:24 GMT 35.218159 -80.940826 0 47 0 32
2022-08-17 11:06:22 GMT 35.218182 -80.940811 0 47 0 32
2022-08-17 11:06:20 GMT 35.218170 -80.940811 0 47 0 32
2022-08-17 11:06:18 GMT 35.218159 -80.940819 0 47 0 32
2022-08-17 11:06:16 GMT 35.218128 -80.940857 0 47 0 32
2022-08-17 11:06:15 GMT 35.218109 -80.940880 0 47 0 32
2022-08-17 11:06:14 GMT 35.218079 -80.940903 0 47 0 0
2022-08-17 11:06:12 GMT 35.218079 -80.940903 0 47 0 0
2022-08-17 11:06:11 GMT 35.218079 -80.940887 0 47 0 0
2022-08-17 11:06:09 GMT 35.218060 -80.940903 0 47 0 0
2022-08-17 11:06:07 GMT 35.218060 -80.940887 0 47 0 0
2022-08-17 11:06:05 GMT 35.218090 -80.940903 0 46 0 0
2022-08-17 11:06:02 GMT 35.218090 -80.940933 0 46 0 0
2022-08-17 11:06:01 GMT 35.218102 -80.940910 0 46 0 0
2022-08-17 11:05:58 GMT 35.218102 -80.940903 0 45 0 0
2022-08-17 11:05:56 GMT 35.218109 -80.940903 0 45 0 0
2022-08-17 11:05:55 GMT 35.218121 -80.940872 0 45 0 0
2022-08-17 11:05:53 GMT 35.218121 -80.940872 0 45 0 0
2022-08-17 11:05:52 GMT 35.218128 -80.940857 0 45 0 -32
2022-08-17 11:05:49 GMT 35.218128 -80.940872 0 45 0 -32
2022-08-17 11:05:47 GMT 35.218140 -80.940826 0 45 0 0
2022-08-17 11:05:46 GMT 35.218159 -80.940819 0 45 0 0
2022-08-17 11:05:44 GMT 35.218151 -80.940887 0 45 0 0
2022-08-17 11:05:43 GMT 35.218140 -80.940880 0 45 0 0
2022-08-17 11:05:42 GMT 35.218140 -80.940849 0 45 0 0
2022-08-17 11:05:40 GMT 35.218151 -80.940849 0 45 0 0
2022-08-17 11:05:37 GMT 35.218140 -80.940872 0 44 0 0
2022-08-17 11:05:35 GMT 35.218109 -80.940903 0 45 0 0
2022-08-17 11:05:33 GMT 35.218102 -80.940918 0 45 0 0
2022-08-17 11:05:31 GMT 35.218109 -80.940903 0 45 0 -32
2022-08-17 11:05:28 GMT 35.218090 -80.940933 0 45 0 -32
2022-08-17 11:05:26 GMT 35.218090 -80.940933 0 43 0 -32
2022-08-17 11:05:24 GMT 35.218079 -80.940918 0 39 2 -32
2022-08-17 11:05:23 GMT 35.218121 -80.940933 0 38 0 -32
2022-08-17 11:05:21 GMT 35.218109 -80.940933 0 38 0 -32
2022-08-17 11:05:19 GMT 35.218121 -80.940887 0 38 0 -32
2022-08-17 11:05:16 GMT 35.218109 -80.940903 0 38 1 -32
2022-08-17 11:05:15 GMT 35.218102 -80.940933 0 37 0 0
2022-08-17 11:05:13 GMT 35.218102 -80.940903 0 37 0 0
2022-08-17 11:05:11 GMT 35.218102 -80.940903 0 37 0 0
2022-08-17 11:05:09 GMT 35.218090 -80.940910 0 37 0 0
2022-08-17 11:05:08 GMT 35.218090 -80.940918 0 37 0 0
2022-08-17 11:05:06 GMT 35.218079 -80.940903 0 37 1 0
2022-08-17 11:05:04 GMT 35.218121 -80.940979 0 37 1 0
2022-08-17 11:05:02 GMT 35.218121 -80.941002 0 39 1 0
2022-08-17 11:05:00 GMT 35.218109 -80.940979 0 39 0 0
2022-08-17 11:04:58 GMT 35.218109 -80.940941 0 39 0 0
2022-08-17 11:04:57 GMT 35.218090 -80.940910 0 39 0 0
2022-08-17 11:04:52 GMT 35.218090 -80.940910 0 39 0 0
2022-08-17 11:04:51 GMT 35.218128 -80.940910 0 40 1 0
2022-08-17 11:04:48 GMT 35.218109 -80.940933 0 40 1 0
2022-08-17 11:04:44 GMT 35.218079 -80.940910 0 40 0 0
2022-08-17 11:04:42 GMT 35.218071 -80.940903 0 40 0 0
2022-08-17 11:04:41 GMT 35.218102 -80.940918 0 40 1 0
2022-08-17 11:04:38 GMT 35.218090 -80.940887 0 40 0 0
2022-08-17 11:04:37 GMT 35.218079 -80.940903 0 40 0 0
2022-08-17 11:04:36 GMT 35.218079 -80.940887 0 38 1 0
2022-08-17 11:04:32 GMT 35.218071 -80.940903 0 37 1 0
2022-08-17 11:04:31 GMT 35.218102 -80.940910 0 37 0 0
2022-08-17 11:04:30 GMT 35.218109 -80.940910 0 37 1 0
2022-08-17 11:04:28 GMT 35.218102 -80.940941 0 37 2 0
2022-08-17 11:04:27 GMT 35.218079 -80.940887 0 37 0 0
2022-08-17 11:04:21 GMT 35.218090 -80.940903 0 37 0 0
2022-08-17 11:04:20 GMT 35.218109 -80.940918 0 40 2 0
2022-08-17 11:04:18 GMT 35.218090 -80.940903 0 41 0 0
2022-08-17 11:04:16 GMT 35.218090 -80.940887 0 41 0 0
2022-08-17 11:04:14 GMT 35.218079 -80.940872 0 42 1 0
2022-08-17 11:04:13 GMT 35.218040 -80.940857 0 40 4 -160
2022-08-17 11:04:11 GMT 35.218079 -80.940910 0 40 0 -160
2022-08-17 11:04:07 GMT 35.218060 -80.940880 0 40 1 -160
2022-08-17 11:04:05 GMT 35.218060 -80.940887 0 35 1 -160
2022-08-17 11:04:02 GMT 35.218090 -80.940903 0 31 0 -160
2022-08-17 11:04:00 GMT 35.218079 -80.940887 0 31 0 -160
2022-08-17 11:03:59 GMT 35.218090 -80.940887 0 31 1 -160
2022-08-17 11:03:58 GMT 35.218079 -80.940887 0 31 0 -160
2022-08-17 11:03:56 GMT 35.218079 -80.940887 0 31 1 -160
2022-08-17 11:03:54 GMT 35.218060 -80.940887 0 31 1 -160
2022-08-17 11:03:53 GMT 35.218060 -80.940880 0 28 2 -160
2022-08-17 11:03:51 GMT 35.218060 -80.940903 0 22 3 -160
2022-08-17 11:03:50 GMT 35.218071 -80.940933 0 21 0 -160
2022-08-17 11:03:49 GMT 35.218079 -80.940933 0 23 2 -160
2022-08-17 11:03:47 GMT 35.218048 -80.940933 0 23 0 -160
2022-08-17 11:03:46 GMT 35.218040 -80.940918 0 23 1 -160
2022-08-17 11:03:45 GMT 35.218048 -80.940941 0 22 2 -160
2022-08-17 11:03:43 GMT 35.218040 -80.940941 0 22 2 -160
2022-08-17 11:03:41 GMT 35.218029 -80.940948 0 18 3 -160
2022-08-17 11:03:40 GMT 35.218029 -80.940971 0 18 3 -160
2022-08-17 11:03:39 GMT 35.217991 -80.940987 0 9 3 -160
2022-08-17 11:03:37 GMT 35.217991 -80.941017 0 5 4 -160
2022-08-17 11:03:35 GMT 35.217949 -80.941040 0 3 0 -160
2022-08-17 11:03:34 GMT 35.217949 -80.941048 0 3 1 -160
2022-08-17 11:03:32 GMT 35.217960 -80.941040 0 4 0 -160
2022-08-17 11:03:30 GMT 35.217991 -80.941002 0 4 0 -160

Making use of Plane Finder data

You are free to use the raw flight data, aircraft information and images provided in this report for your own purposes provided the data is correctly attributed to Plane Finder. We ask that you please credit Plane Finder and link to planefinder.net in close proximity to the content.

Optionally one of the following logos (no smaller then 150x24px) can be used and must link to planefinder.net

Embedding the Plane Finder map

You are welcome to embed the Plane Finder playback map on your website to offer visitors a more interactive experience. We suggest using the following HTML code:

<iframe src="//planefinder.net/data/report/AA993-N820AW-7700-squawk-2022-08-17/map" width="800" height="600" seamless="seamless"></iframe>

Where our data comes from

Plane Finder has a global network of data feeds and antenna radars that receive data broadcast directly from aircraft. The primary technologies used are ADS-B and MLAT. We also show feeds from the FAA and a FLARM glider feed.

Click here to find out more about the Plane Finder network.

How we collect our data